M I D A S
Marine Information and Data Acquisition System
Tripno 449 of the Zeeleeuw from 2003-03-20 08:16:18 to 2003-03-20 15:41:04
Back to CruiseResearch ActivitiesStationsMapUnderway DataData graphs

EquipmentUnitsComment
TimeDGPSUTC
LatitudeDGPSDM.mWGS84
LongitudeDGPSDM.mWGS84
TemperatureSBE03/SBE38deg celciusITS90
ConductivitySBE21S/mITS90
SalinitySBE21 Practical Salinity Units
ChlorophylAChelsea fluorimeterg/lCalibrated in Aceton
Missing or incorrect values are displayed as -999
Sea surface data collected by the RV Zeeleeuw from 2003-03-20 08:16:18 to 2003-03-20 15:41:04
                                                                                    Next 1000 lines
Time Latitude Longitude Temperature Conductivity Salinity ChlorophylA
2003-03-20 08:16:27 51°13.788 2°55.68 -999 0.045637 0.250852 -0.74754
2003-03-20 08:16:32 51°13.793 2°55.675 -999 0.045013 0.247352 -0.74754
2003-03-20 08:16:38 51°13.799 2°55.668 -999 0.044493 0.244438 -0.781249
2003-03-20 08:16:43 51°13.805 2°55.663 -999 0.044285 0.243279 -0.781249
2003-03-20 08:16:48 51°13.811 2°55.658 -999 0.043766 0.240367 -0.74754
2003-03-20 08:16:53 51°13.816 2°55.653 -999 0.043766 0.240367 -0.74754
2003-03-20 08:16:58 51°13.822 2°55.648 -999 0.044389 0.243874 -0.74754
2003-03-20 08:17:03 51°13.828 2°55.642 -999 0.044909 0.246804 -0.74754
2003-03-20 08:17:07 51°13.833 2°55.638 -999 0.044701 0.245644 -0.781249
2003-03-20 08:17:13 51°13.842 2°55.631 -999 0.044077 0.242143 -0.74754
2003-03-20 08:17:18 51°13.848 2°55.625 -999 0.043454 0.238649 -0.781249
2003-03-20 08:17:23 51°13.857 2°55.619 -999 0.043454 0.238649 -0.781249
2003-03-20 08:17:27 51°13.863 2°55.614 -999 0.042726 0.234567 -0.781249
2003-03-20 08:17:31 51°13.869 2°55.609 -999 0.042934 0.235736 -0.74754
2003-03-20 08:17:37 51°13.879 2°55.602 -999 0.042206 0.231664 -0.74754
2003-03-20 08:17:43 51°13.889 2°55.593 -999 0.041479 0.227585 -0.74754
2003-03-20 08:17:47 51°13.896 2°55.588 -999 0.04283 0.235165 -0.781249
2003-03-20 08:17:53 51°13.907 2°55.58 -999 0.04283 0.235165 -0.781249
2003-03-20 08:17:57 51°13.914 2°55.575 -999 0.041271 0.226434 -0.74754
2003-03-20 08:18:02 51°13.924 2°55.568 -999 0.041686 0.228759 -0.74754
2003-03-20 08:18:07 51°13.934 2°55.561 -999 0.041894 0.22993 -0.71383
2003-03-20 08:18:13 51°13.946 2°55.552 -999 0.041375 0.227026 -0.781249
2003-03-20 08:18:16 51°13.952 2°55.547 -999 0.040855 0.22412 -0.781249
2003-03-20 08:18:22 51°13.965 2°55.539 -999 0.040855 0.22412 -0.781249
2003-03-20 08:18:28 51°13.977 2°55.53 -999 0.04179 0.229359 -0.74754
2003-03-20 08:18:33 51°13.987 2°55.523 -999 0.040439 0.221801 -0.781249
2003-03-20 08:18:38 51°13.998 2°55.515 -999 0.040335 0.221216 -0.74754
2003-03-20 08:18:43 51°14.008 2°55.508 -999 0.040751 0.223546 -0.74754
2003-03-20 08:18:47 51°14.017 2°55.502 -999 0.040023 0.219482 -0.74754
2003-03-20 08:18:53 51°14.03 2°55.493 -999 0.040023 0.219482 -0.74754
2003-03-20 08:18:57 51°14.038 2°55.487 -999 0.039919 0.218905 -0.74754
2003-03-20 08:19:03 51°14.051 2°55.478 -999 0.041063 0.225297 -0.781249
2003-03-20 08:19:08 51°14.062 2°55.47 12.480009 1.796775 12.208412 -0.680121
2003-03-20 08:19:13 51°14.072 2°55.462 10.1548 1.792895 12.306894 -0.612702
2003-03-20 08:19:18 51°14.083 2°55.454 9.679877 3.131522 22.620445 8.455127
2003-03-20 08:19:22 51°14.091 2°55.447 9.679877 3.131522 22.620445 8.455127
2003-03-20 08:19:27 51°14.102 2°55.438 8.840215 3.227874 24.042596 6.971913
2003-03-20 08:19:31 51°14.111 2°55.431 9.624566 3.30729 25.552029 6.837076
2003-03-20 08:19:38 51°14.126 2°55.42 8.964668 3.402315 27.84069 12.904768
2003-03-20 08:19:43 51°14.137 2°55.411 8.78036 3.27637 28.02476 18.062306
2003-03-20 08:19:47 51°14.146 2°55.404 9.118412 3.106964 27.29431 18.331982
2003-03-20 08:19:53 51°14.158 2°55.394 9.118412 3.106964 27.29431 18.331982
2003-03-20 08:19:57 51°14.166 2°55.386 8.727147 3.025919 27.416784 17.691503
2003-03-20 08:20:02 51°14.176 2°55.377 8.408719 2.926146 26.812269 17.792631
2003-03-20 08:20:07 51°14.185 2°55.368 8.603625 2.869744 26.567487 18.197144
2003-03-20 08:20:13 51°14.197 2°55.355 8.677671 2.824396 26.371586 18.500529
2003-03-20 08:20:18 51°14.207 2°55.344 8.8182 2.785889 26.118509 18.298272
2003-03-20 08:20:22 51°14.216 2°55.334 8.8182 2.785889 26.118509 18.298272
2003-03-20 08:20:27 51°14.225 2°55.322 8.815573 2.761272 25.988055 18.500529
2003-03-20 08:20:32 51°14.234 2°55.31 8.198418 2.735815 25.827401 18.163435
2003-03-20 08:20:38 51°14.244 2°55.294 8.470168 2.724349 25.771077 17.691503
2003-03-20 08:20:43 51°14.253 2°55.281 8.03149 2.724455 25.815244 17.725212
2003-03-20 08:20:47 51°14.259 2°55.27 8.625522 2.711411 25.721029 17.522956
2003-03-20 08:20:53 51°14.269 2°55.254 8.625522 2.711411 25.721029 17.522956
2003-03-20 08:20:57 51°14.275 2°55.243 8.476698 2.645039 25.070815 17.792631
2003-03-20 08:21:03 51°14.285 2°55.226 8.338984 2.719512 25.870254 17.691503
2003-03-20 08:21:07 51°14.291 2°55.215 8.38848 2.707835 25.776294 17.725212
2003-03-20 08:21:13 51°14.3 2°55.197 8.542256 2.687429 25.590116 17.961178
2003-03-20 08:21:17 51°14.307 2°55.184 8.416361 2.673334 25.453719 17.86005
2003-03-20 08:21:23 51°14.316 2°55.166 8.416361 2.673334 25.453719 17.86005
2003-03-20 08:21:27 51°14.323 2°55.153 8.448987 2.660817 25.32826 17.826341
2003-03-20 08:21:33 51°14.333 2°55.134 8.47156 2.648091 25.203707 17.657794
2003-03-20 08:21:37 51°14.34 2°55.121 8.426117 2.637047 25.097986 17.657794
2003-03-20 08:21:43 51°14.351 2°55.101 8.271919 2.63547 25.088223 17.556665
2003-03-20 08:21:47 51°14.358 2°55.088 8.344806 2.630106 25.041891 17.455537
2003-03-20 08:21:52 51°14.367 2°55.072 8.344806 2.630106 25.041891 17.455537
2003-03-20 08:21:58 51°14.378 2°55.052 8.379872 2.629475 25.054273 17.253281
2003-03-20 08:22:01 51°14.383 2°55.043 8.328012 2.63568 25.132183 16.815059
2003-03-20 08:22:07 51°14.395 2°55.024 8.594855 2.646935 25.267495 16.781349
2003-03-20 08:22:13 51°14.407 2°55.003 7.91336 2.667655 25.495682 16.612802
2003-03-20 08:22:17 51°14.415 2°54.989 8.11566 2.679541 25.635718 16.343127
2003-03-20 08:22:23 51°14.427 2°54.968 8.11566 2.679541 25.635718 16.343127
2003-03-20 08:22:27 51°14.435 2°54.954 8.153506 2.697634 25.842656 16.208289
2003-03-20 08:22:31 51°14.443 2°54.941 8.210329 2.724038 26.137128 16.073452
2003-03-20 08:22:38 51°14.46 2°54.919 8.835918 2.740133 26.31619 16.107161
2003-03-20 08:22:43 51°14.472 2°54.904 8.408575 2.762857 26.570241 16.343127
2003-03-20 08:22:48 51°14.485 2°54.889 7.757586 2.790632 26.888322 16.781349
2003-03-20 08:22:51 51°14.492 2°54.88 7.757586 2.790632 26.888322 16.781349
2003-03-20 08:22:57 51°14.508 2°54.861 8.064843 2.811149 27.128852 17.590375
2003-03-20 08:23:03 51°14.522 2°54.843 8.610622 2.812833 27.163481 18.163435
2003-03-20 08:23:08 51°14.535 2°54.828 8.460467 2.857763 27.649495 18.905042
2003-03-20 08:23:13 51°14.547 2°54.813 8.344662 2.871863 27.809529 19.511811
2003-03-20 08:23:18 51°14.56 2°54.798 8.275917 2.889648 28.010529 20.185999
2003-03-20 08:23:22 51°14.57 2°54.786 8.275917 2.889648 28.010529 20.185999
2003-03-20 08:23:27 51°14.582 2°54.77 7.83101 2.901645 28.156179 20.421965
2003-03-20 08:23:33 51°14.597 2°54.753 7.816555 2.903118 28.178908 20.556802
2003-03-20 08:23:38 51°14.61 2°54.738 7.91244 2.914589 28.312937 20.759059
2003-03-20 08:23:43 51°14.624 2°54.722 8.224406 2.931954 28.514597 21.2647
2003-03-20 08:23:47 51°14.635 2°54.71 8.047492 2.943531 28.653742 21.938888
2003-03-20 08:23:53 51°14.651 2°54.693 8.047492 2.943531 28.653742 21.938888
2003-03-20 08:23:57 51°14.662 2°54.681 8.202903 2.960686 28.851669 22.141144
2003-03-20 08:24:03 51°14.679 2°54.665 8.16914 2.983631 29.107248 22.646785
2003-03-20 08:24:07 51°14.69 2°54.653 8.04464 2.993946 29.223446 23.253554
2003-03-20 08:24:11 51°14.702 2°54.643 7.911083 3.005525 29.368651 23.759195
2003-03-20 08:24:17 51°14.719 2°54.626 8.2579 3.020998 29.543021 23.927742
2003-03-20 08:24:23 51°14.736 2°54.611 8.2579 3.020998 29.543021 23.927742
2003-03-20 08:24:27 51°14.748 2°54.6 7.913554 3.028156 29.62697 23.995161
2003-03-20 08:24:33 51°14.766 2°54.584 7.968944 3.035103 29.706496 24.028871
2003-03-20 08:24:37 51°14.778 2°54.573 7.968218 3.040577 29.770867 24.096289
2003-03-20 08:24:42 51°14.793 2°54.561 7.851813 3.047314 29.853397 23.995161
2003-03-20 08:24:48 51°14.811 2°54.546 8.067791 3.054262 29.927133 23.927742
2003-03-20 08:24:53 51°14.826 2°54.533 8.067791 3.054262 29.927133 23.927742
2003-03-20 08:24:57 51°14.838 2°54.522 8.228311 3.059736 29.989394 23.826614
2003-03-20 08:25:03 51°14.856 2°54.506 7.710566 3.06321 30.028519 23.590648
2003-03-20 08:25:07 51°14.868 2°54.495 8.236215 3.061526 30.01698 23.051298
2003-03-20 08:25:13 51°14.885 2°54.478 8.189544 3.068579 30.10464 22.95017
2003-03-20 08:25:17 51°14.897 2°54.467 8.27293 3.068684 30.112518 22.511947
2003-03-20 08:25:23 51°14.915 2°54.45 8.27293 3.068684 30.112518 22.511947
2003-03-20 08:25:27 51°14.926 2°54.438 7.742386 3.070158 30.1315 21.905178
2003-03-20 08:25:32 51°14.941 2°54.424 7.941012 3.07479 30.191512 21.837759
2003-03-20 08:25:37 51°14.955 2°54.41 7.440506 3.06879 30.127141 21.635503
2003-03-20 08:25:43 51°14.972 2°54.393 7.988444 3.077738 30.225012 21.096153
2003-03-20 08:25:47 51°14.983 2°54.381 7.451241 3.081633 30.271067 21.028734
2003-03-20 08:25:53 51°15 2°54.364 7.451241 3.081633 30.271067 21.028734
2003-03-20 08:25:57 51°15.012 2°54.353 7.514002 3.086476 30.326679 20.995024
2003-03-20 08:26:03 51°15.029 2°54.335 7.842018 3.085423 30.319015 21.062443
2003-03-20 08:26:08 51°15.042 2°54.321 8.076391 3.087634 30.344544 20.759059
2003-03-20 08:26:13 51°15.056 2°54.307 7.715134 3.08995 30.365177 21.028734
2003-03-20 08:26:17 51°15.068 2°54.296 8.457345 3.084054 30.295101 20.961315
2003-03-20 08:26:23 51°15.084 2°54.279 8.457345 3.084054 30.295101 20.961315
2003-03-20 08:26:27 51°15.096 2°54.269 7.702839 3.093529 30.400289 20.995024
2003-03-20 08:26:33 51°15.113 2°54.252 7.828682 3.094056 30.406008 21.197281
2003-03-20 08:26:38 51°15.128 2°54.239 7.794478 3.09016 30.365954 21.129862
2003-03-20 08:26:43 51°15.143 2°54.225 8.037824 3.096793 30.440296 21.096153
2003-03-20 08:26:47 51°15.154 2°54.215 7.781665 3.091003 30.372837 21.332118
2003-03-20 08:26:53 51°15.172 2°54.198 7.781665 3.091003 30.372837 21.332118
2003-03-20 08:26:58 51°15.186 2°54.184 7.973589 3.089423 30.351151 21.80405
2003-03-20 08:27:03 51°15.201 2°54.17 7.676543 3.08995 30.363666 22.107435
2003-03-20 08:27:07 51°15.212 2°54.158 7.950405 3.096266 30.437604 22.242272
2003-03-20 08:27:11 51°15.223 2°54.146 7.880074 3.096793 30.444841 22.511947
2003-03-20 08:27:17 51°15.24 2°54.128 7.909824 3.085844 30.328873 22.91646
2003-03-20 08:27:22 51°15.254 2°54.113 7.909824 3.085844 30.328873 22.91646
2003-03-20 08:27:27 51°15.269 2°54.098 7.748311 3.092582 30.40815 23.118717
2003-03-20 08:27:33 51°15.287 2°54.079 7.644544 3.084686 30.33592 23.320973
2003-03-20 08:27:37 51°15.299 2°54.068 7.680432 3.091424 30.41449 23.658067
2003-03-20 08:27:42 51°15.315 2°54.054 7.551814 3.096056 30.468679 23.287264
2003-03-20 08:27:48 51°15.333 2°54.038 7.462315 3.092056 30.431974 23.152426
2003-03-20 08:27:53 51°15.349 2°54.024 7.462315 3.092056 30.431974 23.152426
2003-03-20 08:27:58 51°15.365 2°54.013 7.669006 3.092161 30.435395 22.781623
2003-03-20 08:28:02 51°15.379 2°54.003 7.686703 3.085213 30.361304 22.747913
2003-03-20 08:28:07 51°15.396 2°53.99 7.966378 3.091951 30.432346 22.141144
2003-03-20 08:28:13 51°15.414 2°53.974 7.281767 3.091635 30.431184 22.073725
2003-03-20 08:28:18 51°15.43 2°53.96 7.570955 3.090477 30.421614 22.073725
2003-03-20 08:28:23 51°15.445 2°53.946 7.570955 3.090477 30.421614 22.073725
2003-03-20 08:28:27 51°15.458 2°53.935 7.527697 3.078265 30.289497 21.837759
2003-03-20 08:28:32 51°15.474 2°53.922 7.404337 3.084687 30.363902 21.635503
2003-03-20 08:28:38 51°15.493 2°53.907 8.081416 3.078581 30.305775 21.635503
2003-03-20 08:28:43 51°15.509 2°53.894 7.605716 3.089319 30.424937 21.433247
2003-03-20 08:28:47 51°15.522 2°53.885 7.915152 3.082055 30.348125 21.028734
2003-03-20 08:28:53 51°15.542 2°53.87 7.915152 3.082055 30.348125 21.028734
2003-03-20 08:28:58 51°15.559 2°53.858 8.101801 3.089108 30.42568 21.096153
2003-03-20 08:29:03 51°15.575 2°53.845 8.235781 3.093635 30.475742 21.197281
2003-03-20 08:29:07 51°15.588 2°53.835 8.05769 3.091003 30.451634 20.893896
2003-03-20 08:29:13 51°15.608 2°53.818 7.924936 3.093846 30.48488 20.792768
2003-03-20 08:29:17 51°15.621 2°53.806 7.807094 3.090793 30.452379 20.961315
2003-03-20 08:29:21 51°15.634 2°53.794 7.807094 3.090793 30.452379 20.961315
2003-03-20 08:29:27 51°15.653 2°53.777 8.163832 3.090161 30.453857 20.725349
2003-03-20 08:29:33 51°15.673 2°53.758 7.606008 3.085108 30.405631 20.421965
2003-03-20 08:29:37 51°15.686 2°53.746 7.635058 3.088161 30.4427 20.253418
2003-03-20 08:29:43 51°15.706 2°53.729 7.912149 3.089109 30.461393 19.848905
2003-03-20 08:29:47 51°15.719 2°53.718 7.705804 3.081213 30.380636 19.57923
2003-03-20 08:29:51 51°15.732 2°53.707 7.705804 3.081213 30.380636 19.57923
2003-03-20 08:29:58 51°15.755 2°53.687 7.346991 3.085951 30.435323 19.107298
2003-03-20 08:30:03 51°15.772 2°53.672 7.861364 3.083845 30.414645 18.803913
2003-03-20 08:30:07 51°15.786 2°53.661 7.576409 3.078476 30.360661 18.601657
2003-03-20 08:30:11 51°15.799 2°53.649 7.533349 3.074897 30.324672 18.264563
2003-03-20 08:30:17 51°15.819 2°53.632 7.894418 3.074897 30.329219 17.758922
2003-03-20 08:30:23 51°15.84 2°53.614 7.894418 3.074897 30.329219 17.758922
2003-03-20 08:30:28 51°15.856 2°53.6 7.369467 3.072265 30.302797 17.725212
2003-03-20 08:30:33 51°15.873 2°53.585 7.649895 3.070792 30.292786 17.489247
2003-03-20 08:30:38 51°15.89 2°53.571 7.640166 3.070265 30.290076 17.3207
2003-03-20 08:30:43 51°15.907 2°53.557 7.121063 3.065739 30.245254 17.118443
2003-03-20 08:30:48 51°15.924 2°53.542 7.441092 3.071002 30.30569 17.017315
2003-03-20 08:30:51 51°15.934 2°53.533 7.441092 3.071002 30.30569 17.017315
2003-03-20 08:30:57 51°15.955 2°53.515 7.797293 3.070265 30.301442 17.017315
2003-03-20 08:31:03 51°15.975 2°53.498 7.518193 3.070476 30.303738 16.646512
2003-03-20 08:31:08 51°15.992 2°53.484 7.790499 3.067634 30.278034 16.545383
2003-03-20 08:31:13 51°16.009 2°53.469 7.435334 3.073213 30.344228 16.376836
2003-03-20 08:31:17 51°16.023 2°53.457 7.473778 3.070897 30.317433 16.545383
2003-03-20 08:31:22 51°16.039 2°53.443 7.473778 3.070897 30.317433 16.545383
2003-03-20 08:31:27 51°16.056 2°53.428 7.464657 3.070476 30.316631 16.275708
2003-03-20 08:31:32 51°16.072 2°53.413 7.543532 3.069634 30.308957 16.343127
2003-03-20 08:31:38 51°16.092 2°53.396 7.261903 3.07774 30.399728 16.680221
2003-03-20 08:31:43 51°16.109 2°53.381 7.614768 3.078372 30.40967 16.309418
2003-03-20 08:31:47 51°16.122 2°53.37 7.568958 3.077635 30.403906 16.140871
2003-03-20 08:31:51 51°16.135 2°53.358 7.568958 3.077635 30.403906 16.140871
2003-03-20 08:31:58 51°16.158 2°53.337 7.8824 3.081635 30.4476 15.938614
2003-03-20 08:32:03 51°16.176 2°53.322 7.562968 3.083951 30.477478 16.241999
2003-03-20 08:32:07 51°16.189 2°53.31 7.434748 3.083846 30.477854 15.60152
2003-03-20 08:32:13 51°16.209 2°53.292 7.031008 3.084688 30.492402 15.466683
2003-03-20 08:32:18 51°16.226 2°53.277 7.584979 3.087952 30.533426 15.264426
2003-03-20 08:32:23 51°16.242 2°53.262 7.584979 3.087952 30.533426 15.264426
2003-03-20 08:32:27 51°16.255 2°53.249 7.501913 3.086794 30.525354 14.994751
2003-03-20 08:32:33 51°16.274 2°53.232 7.580402 3.09311 30.597495 14.691366
2003-03-20 08:32:38 51°16.291 2°53.217 7.419276 3.099216 30.668136 14.522819
2003-03-20 08:32:43 51°16.308 2°53.203 7.413369 3.09669 30.645097 14.017178
2003-03-20 08:32:48 51°16.324 2°53.19 7.563017 3.099532 30.68082 13.91605
2003-03-20 08:32:53 51°16.341 2°53.176 7.563017 3.099532 30.68082 13.91605
2003-03-20 08:32:57 51°16.354 2°53.165 7.956843 3.103428 30.728855 13.3767
2003-03-20 08:33:03 51°16.374 2°53.149 7.475241 3.100796 30.703886 13.241862
2003-03-20 08:33:07 51°16.387 2°53.138 7.1089 3.10427 30.746559 12.601383
2003-03-20 08:33:13 51°16.407 2°53.121 7.345672 3.105639 30.764638 12.062033
2003-03-20 08:33:18 51°16.423 2°53.108 7.343277 3.103007 30.73889 11.724939
2003-03-20 08:33:23 51°16.439 2°53.094 7.343277 3.103007 30.73889 11.724939
2003-03-20 08:33:27 51°16.453 2°53.083 7.302163 3.104797 30.764672 11.623811
2003-03-20 08:33:33 51°16.472 2°53.067 7.350168 3.107429 30.798154 11.927195
2003-03-20 08:33:38 51°16.489 2°53.053 7.828051 3.101323 30.737403 12.163161
2003-03-20 08:33:43 51°16.506 2°53.04 7.832028 3.10585 30.790891 12.76993
2003-03-20 08:33:47 51°16.519 2°53.03 7.410782 3.107745 30.81399 13.275571
2003-03-20 08:33:52 51°16.536 2°53.016 7.410782 3.107745 30.81399 13.275571
2003-03-20 08:33:57 51°16.552 2°53.003 7.868684 3.105955 30.799005 13.646375
2003-03-20 08:34:03 51°16.572 2°52.988 7.357644 3.10964 30.839418 14.084597
2003-03-20 08:34:07 51°16.585 2°52.977 7.403703 3.113324 30.878288 14.691366
2003-03-20 08:34:13 51°16.605 2°52.962 7.690008 3.110692 30.849417 15.197007
2003-03-20 08:34:18 51°16.621 2°52.948 7.299816 3.114693 30.890976 14.859913
2003-03-20 08:34:22 51°16.634 2°52.938 7.299816 3.114693 30.890976 14.859913
2003-03-20 08:34:27 51°16.65 2°52.925 7.704249 3.114167 30.884425 15.095879
2003-03-20 08:34:33 51°16.67 2°52.91 7.352562 3.118483 30.92945 14.994751
2003-03-20 08:34:38 51°16.687 2°52.896 7.639436 3.115746 30.896318 15.095879
2003-03-20 08:34:42 51°16.7 2°52.886 7.841873 3.123747 30.980207 15.129589
2003-03-20 08:34:47 51°16.716 2°52.873 7.32749 3.122273 30.958597 15.331845
2003-03-20 08:34:53 51°16.736 2°52.858 7.32749 3.122273 30.958597 15.331845
2003-03-20 08:34:57 51°16.749 2°52.848 7.692001 3.128274 31.018978 15.534101
2003-03-20 08:35:02 51°16.764 2°52.835 7.454461 3.131538 31.04855 15.837486
2003-03-20 08:35:07 51°16.78 2°52.822 7.694675 3.131748 31.046965 16.039742
2003-03-20 08:35:13 51°16.799 2°52.807 7.4589 3.132591 31.051529 16.343127
2003-03-20 08:35:17 51°16.811 2°52.798 7.346796 3.141961 31.150405 16.444255
2003-03-20 08:35:23 51°16.83 2°52.784 7.346796 3.141961 31.150405 16.444255
2003-03-20 08:35:27 51°16.842 2°52.775 7.345818 3.142066 31.146873 16.343127
2003-03-20 08:35:33 51°16.861 2°52.761 7.587121 3.144172 31.167626 16.545383
2003-03-20 08:35:37 51°16.874 2°52.751 7.589019 3.149015 31.216841 16.579093
2003-03-20 08:35:42 51°16.889 2°52.74 7.385781 3.15249 31.252608 16.545383
2003-03-20 08:35:47 51°16.904 2°52.729 7.267971 3.150173 31.222502 16.140871
2003-03-20 08:35:53 51°16.922 2°52.716 7.267971 3.150173 31.222502 16.140871
2003-03-20 08:35:58 51°16.937 2°52.704 7.747631 3.152279 31.243249 16.275708
2003-03-20 08:36:03 51°16.953 2°52.692 7.310231 3.157543 31.299428 16.107161
2003-03-20 08:36:08 51°16.968 2°52.681 7.626009 3.152911 31.247046 16.039742
2003-03-20 08:36:12 51°16.981 2°52.671 7.323237 3.156596 31.28668 16.241999
2003-03-20 08:36:18 51°17 2°52.657 7.548842 3.159123 31.3144 15.63523
2003-03-20 08:36:23 51°17.015 2°52.645 7.548842 3.159123 31.3144 15.63523
2003-03-20 08:36:27 51°17.028 2°52.635 7.472266 3.164282 31.368646 16.073452
2003-03-20 08:36:33 51°17.048 2°52.621 7.511808 3.156912 31.287793 15.904905
2003-03-20 08:36:36 51°17.058 2°52.615 7.507129 3.166493 31.392907 15.736358
2003-03-20 08:36:43 51°17.08 2°52.604 7.55459 3.164703 31.373267 15.399264
2003-03-20 08:36:47 51°17.093 2°52.599 7.280055 3.167441 31.405666 15.331845
2003-03-20 08:36:51 51°17.107 2°52.596 7.280055 3.167441 31.405666 15.331845
2003-03-20 08:36:58 51°17.13 2°52.591 7.868054 3.167546 31.405248 15.331845
2003-03-20 08:37:03 51°17.146 2°52.588 7.370444 3.16723 31.402568 15.365554
2003-03-20 08:37:07 51°17.159 2°52.586 7.429965 3.169231 31.423736 15.197007
2003-03-20 08:37:12 51°17.176 2°52.584 7.66322 3.168809 31.417539 14.657657
2003-03-20 08:37:18 51°17.196 2°52.583 7.550742 3.173021 31.459822 14.657657
2003-03-20 08:37:23 51°17.213 2°52.582 7.550742 3.173021 31.459822 14.657657
2003-03-20 08:37:27 51°17.227 2°52.581 7.989412 3.171968 31.445115 14.994751
2003-03-20 08:37:33 51°17.247 2°52.58 7.547235 3.170705 31.428102 14.691366
2003-03-20 08:37:38 51°17.264 2°52.578 7.586488 3.175022 31.477835 14.286853
2003-03-20 08:37:43 51°17.28 2°52.576 8.177679 3.174285 31.473689 14.050888
2003-03-20 08:37:47 51°17.294 2°52.573 7.579623 3.175653 31.494236 14.084597
2003-03-20 08:37:53 51°17.314 2°52.571 7.579623 3.175653 31.494236 14.084597
2003-03-20 08:37:58 51°17.331 2°52.568 7.494454 3.175759 31.49697 14.017178
2003-03-20 08:38:03 51°17.347 2°52.565 7.735975 3.169546 31.429565 13.848631
2003-03-20 08:38:07 51°17.361 2°52.562 7.612043 3.176917 31.511266 13.477828
2003-03-20 08:38:13 51°17.381 2°52.557 7.412393 3.175653 31.50134 13.781212
2003-03-20 08:38:18 51°17.398 2°52.553 7.689231 3.179233 31.543817 13.747503
2003-03-20 08:38:23 51°17.415 2°52.55 7.689231 3.179233 31.543817 13.747503
2003-03-20 08:38:28 51°17.433 2°52.547 7.452363 3.173758 31.486844 13.511537
2003-03-20 08:38:33 51°17.45 2°52.545 7.521215 3.179023 31.545458 13.241862
2003-03-20 08:38:37 51°17.463 2°52.543 7.444898 3.176917 31.524697 13.208153
2003-03-20 08:38:43 51°17.484 2°52.541 7.482361 3.178918 31.549047 13.073315
2003-03-20 08:38:48 51°17.501 2°52.54 7.526235 3.177654 31.535166 12.837349
2003-03-20 08:38:53 51°17.519 2°52.538 7.526235 3.177654 31.535166 12.837349
2003-03-20 08:38:58 51°17.536 2°52.536 7.522239 3.176496 31.521651 13.073315
2003-03-20 08:39:02 51°17.55 2°52.534 7.605375 3.179339 31.554465 12.837349
2003-03-20 08:39:07 51°17.567 2°52.531 7.284115 3.179549 31.559153 12.837349
2003-03-20 08:39:12 51°17.584 2°52.527 7.720672 3.178918 31.553003 13.208153
2003-03-20 08:39:18 51°17.604 2°52.523 7.522775 3.17081 31.465513 13.107024
2003-03-20 08:39:23 51°17.621 2°52.519 7.522775 3.17081 31.465513 13.107024
2003-03-20 08:39:27 51°17.635 2°52.516 7.887392 3.177022 31.534551 13.241862
2003-03-20 08:39:32 51°17.652 2°52.513 7.323237 3.173548 31.496376 13.34299
2003-03-20 08:39:38 51°17.672 2°52.511 7.443093 3.171758 31.476712 13.275571
2003-03-20 08:39:42 51°17.686 2°52.509 7.60922 3.176707 31.533453 13.309281
2003-03-20 08:39:48 51°17.707 2°52.508 7.882545 3.176812 31.535401 13.3767
2003-03-20 08:39:53 51°17.724 2°52.507 7.882545 3.176812 31.535401 13.3767
2003-03-20 08:39:57 51°17.737 2°52.506 7.285094 3.177549 31.543501 13.477828
2003-03-20 08:40:03 51°17.758 2°52.506 7.523993 3.175443 31.52036 13.444118
2003-03-20 08:40:07 51°17.771 2°52.506 7.126605 3.177128 31.538872 13.781212
2003-03-20 08:40:13 51°17.792 2°52.506 7.522092 3.176496 31.531139 13.612665
2003-03-20 08:40:18 51°17.809 2°52.505 7.484214 3.175759 31.521459 13.983469
2003-03-20 08:40:23 51°17.826 2°52.505 7.484214 3.175759 31.521459 13.983469
2003-03-20 08:40:27 51°17.84 2°52.505 7.924355 3.173337 31.496432 13.949759
2003-03-20 08:40:33 51°17.86 2°52.507 7.443288 3.175759 31.52304 14.017178
2003-03-20 08:40:38 51°17.877 2°52.509 7.324899 3.175338 31.518413 13.713794
2003-03-20 08:40:43 51°17.893 2°52.513 7.850698 3.173864 31.503006 14.421691
2003-03-20 08:40:48 51°17.91 2°52.518 7.443776 3.1726 31.489914 14.050888
2003-03-20 08:40:53 51°17.927 2°52.526 7.443776 3.1726 31.489914 14.050888
2003-03-20 08:40:58 51°17.943 2°52.536 7.566523 3.175127 31.51768 14.084597
2003-03-20 08:41:03 51°17.958 2°52.547 7.411807 3.171337 31.476033 14.050888
2003-03-20 08:41:07 51°17.969 2°52.557 7.527209 3.173758 31.501059 13.949759
2003-03-20 08:41:12 51°17.982 2°52.571 7.761762 3.174074 31.502159 14.084597
2003-03-20 08:41:18 51°17.998 2°52.589 7.75477 3.173127 31.492539 13.882341
2003-03-20 08:41:23 51°18.012 2°52.604 7.75477 3.173127 31.492539 13.882341
2003-03-20 08:41:28 51°18.025 2°52.62 7.513856 3.173548 31.496376 13.949759
2003-03-20 08:41:31 51°18.033 2°52.629 7.672993 3.175127 31.511356 13.983469
2003-03-20 08:41:38 51°18.052 2°52.653 7.628442 3.171968 31.475868 14.084597
2003-03-20 08:41:43 51°18.064 2°52.67 7.866842 3.173443 31.496009 13.612665
2003-03-20 08:41:47 51°18.074 2°52.684 7.780695 3.171337 31.475243 13.3767
2003-03-20 08:41:53 51°18.088 2°52.707 7.780695 3.171337 31.475243 13.3767
2003-03-20 08:41:58 51°18.1 2°52.725 8.020369 3.1706 31.470304 13.241862
2003-03-20 08:42:03 51°18.111 2°52.745 7.495721 3.163861 31.400219 13.174443
2003-03-20 08:42:07 51°18.121 2°52.761 7.854383 3.164914 31.415726 13.140734
2003-03-20 08:42:11 51°18.129 2°52.778 7.535152 3.161018 31.374504 13.073315
2003-03-20 08:42:17 51°18.141 2°52.803 7.451631 3.153648 31.297483 12.668802
2003-03-20 08:42:23 51°18.153 2°52.828 7.451631 3.153648 31.297483 12.668802
2003-03-20 08:42:28 51°18.163 2°52.849 7.611313 3.155649 31.322598 12.837349
2003-03-20 08:42:33 51°18.173 2°52.871 7.845849 3.152069 31.286419 12.904768
2003-03-20 08:42:38 51°18.184 2°52.892 7.843958 3.151016 31.277995 12.76993
2003-03-20 08:42:43 51°18.194 2°52.913 7.804668 3.149647 31.263746 12.668802
2003-03-20 08:42:48 51°18.205 2°52.934 7.762101 3.147752 31.244499 12.938477
2003-03-20 08:42:51 51°18.212 2°52.946 7.762101 3.147752 31.244499 12.938477
2003-03-20 08:42:57 51°18.224 2°52.971 8.19837 3.142909 31.192092 12.837349
2003-03-20 08:43:03 51°18.237 2°52.996 7.803504 3.146383 31.232602 12.80364
2003-03-20 08:43:07 51°18.246 2°53.013 7.320548 3.144172 31.210668 13.140734
2003-03-20 08:43:13 51°18.259 2°53.039 7.677612 3.144699 31.219586 13.174443
2003-03-20 08:43:17 51°18.267 2°53.056 7.516877 3.143435 31.205707 13.309281
2003-03-20 08:43:22 51°18.278 2°53.076 7.516877 3.143435 31.205707 13.309281
2003-03-20 08:43:28 51°18.291 2°53.102 7.796759 3.14133 31.184927 13.3767
2003-03-20 08:43:33 51°18.301 2°53.123 7.754915 3.143857 31.213469 13.34299
2003-03-20 08:43:38 51°18.312 2°53.144 7.513758 3.142699 31.202313 13.646375
2003-03-20 08:43:42 51°18.32 2°53.16 7.391398 3.142172 31.198097 13.578956
2003-03-20 08:43:47 51°18.331 2°53.181 7.506105 3.138908 31.164591 13.814922
2003-03-20 08:43:53 51°18.344 2°53.206 7.506105 3.138908 31.164591 13.814922
2003-03-20 08:43:57 51°18.352 2°53.223 7.666089 3.138487 31.161531 14.017178
2003-03-20 08:44:03 51°18.365 2°53.248 7.659038 3.134907 31.120645 14.219435
2003-03-20 08:44:07 51°18.373 2°53.264 7.582593 3.133539 31.110302 14.286853
2003-03-20 08:44:13 51°18.385 2°53.289 7.537637 3.131644 31.089487 14.084597
2003-03-20 08:44:18 51°18.396 2°53.31 7.336239 3.131644 31.09183 14.152016
2003-03-20 08:44:23 51°18.406 2°53.331 7.336239 3.131644 31.09183 14.152016
2003-03-20 08:44:28 51°18.416 2°53.352 7.492162 3.128591 31.061418 14.286853
2003-03-20 08:44:31 51°18.423 2°53.364 7.4121 3.125958 31.03407 14.219435
2003-03-20 08:44:37 51°18.435 2°53.389 7.570565 3.123011 31.003254 14.253144
2003-03-20 08:44:43 51°18.448 2°53.413 7.812237 3.119642 30.969373 14.253144
2003-03-20 08:44:48 51°18.458 2°53.433 7.61068 3.116273 30.93549 14.152016
2003-03-20 08:44:53 51°18.469 2°53.454 7.61068 3.116273 30.93549 14.152016
2003-03-20 08:44:58 51°18.48 2°53.474 7.327001 3.111746 30.886563 14.152016
2003-03-20 08:45:02 51°18.488 2°53.491 7.884629 3.112693 30.899295 14.320563
2003-03-20 08:45:07 51°18.498 2°53.512 7.76652 3.10964 30.868103 14.118306
2003-03-20 08:45:13 51°18.511 2°53.537 7.448509 3.108482 30.854614 14.320563
2003-03-20 08:45:17 51°18.519 2°53.553 7.726162 3.101955 30.784516 14.084597
2003-03-20 08:45:23 51°18.532 2°53.577 7.726162 3.101955 30.784516 14.084597
2003-03-20 08:45:27 51°18.54 2°53.593 7.446459 3.104692 30.816884 14.084597
2003-03-20 08:45:32 51°18.55 2°53.614 8.045075 3.102586 30.792997 14.017178
2003-03-20 08:45:38 51°18.562 2°53.639 7.719458 3.10006 30.768359 13.949759
2003-03-20 08:45:43 51°18.573 2°53.659 7.92203 3.096586 30.730231 14.152016
2003-03-20 08:45:47 51°18.58 2°53.676 7.402238 3.095006 30.715991 13.983469
2003-03-20 08:45:51 51°18.588 2°53.692 7.402238 3.095006 30.715991 13.983469
2003-03-20 08:45:57 51°18.599 2°53.719 7.406535 3.088269 30.639749 14.118306
2003-03-20 08:46:03 51°18.61 2°53.746 7.684078 3.089427 30.653224 14.387982
2003-03-20 08:46:08 51°18.618 2°53.769 7.63968 3.091848 30.681333 14.084597
2003-03-20 08:46:13 51°18.626 2°53.792 7.203792 3.09069 30.670169 14.219435
2003-03-20 08:46:18 51°18.634 2°53.816 7.357302 3.088795 30.649377 14.152016
2003-03-20 08:46:22 51°18.64 2°53.835 7.357302 3.088795 30.649377 14.152016
2003-03-20 08:46:27 51°18.647 2°53.858 7.35481 3.087111 30.628586 14.185725
2003-03-20 08:46:32 51°18.654 2°53.881 7.474509 3.087427 30.632821 14.219435
2003-03-20 08:46:38 51°18.663 2°53.909 7.55308 3.0869 30.628587 14.4554
2003-03-20 08:46:43 51°18.67 2°53.932 7.549037 3.082163 30.576621 14.152016
2003-03-20 08:46:47 51°18.676 2°53.951 7.628879 3.084163 30.6001 14.286853
2003-03-20 08:46:53 51°18.684 2°53.979 7.628879 3.084163 30.6001 14.286853
2003-03-20 08:46:57 51°18.69 2°53.998 7.304706 3.078478 30.540819 14.152016
2003-03-20 08:47:03 51°18.699 2°54.026 7.627031 3.080163 30.5616 14.421691
2003-03-20 08:47:07 51°18.704 2°54.045 8.101704 3.077636 30.535422 14.219435
2003-03-20 08:47:13 51°18.713 2°54.073 7.821212 3.073004 30.486153 14.590238
2003-03-20 08:47:18 51°18.72 2°54.097 7.501669 3.070267 30.458436 14.421691
2003-03-20 08:47:23 51°18.727 2°54.121 7.820775 3.069741 30.454196 14.387982
2003-03-20 08:47:27 51°18.732 2°54.14 7.820775 3.069741 30.454196 14.387982
2003-03-20 08:47:33 51°18.742 2°54.167 7.899505 2.996372 29.651723 14.354272
2003-03-20 08:47:38 51°18.749 2°54.191 7.663414 3.069109 30.449567 14.556529
2003-03-20 08:47:43 51°18.757 2°54.213 7.740686 3.069741 30.456494 14.48911
2003-03-20 08:47:47 51°18.763 2°54.232 8.016597 3.068372 30.443017 14.556529
2003-03-20 08:47:52 51°18.771 2°54.255 8.016597 3.068372 30.443017 14.556529
2003-03-20 08:47:57 51°18.778 2°54.278 8.176135 3.065846 30.41684 14.590238
2003-03-20 08:48:03 51°18.786 2°54.307 7.695792 3.064898 30.40798 14.623947
2003-03-20 08:48:07 51°18.792 2°54.325 7.616812 3.063319 30.390664 14.623947
2003-03-20 08:48:13 51°18.801 2°54.353 7.694772 3.060477 30.360262 14.893623
2003-03-20 08:48:18 51°18.809 2°54.376 7.931667 3.059424 30.348719 14.725076
2003-03-20 08:48:23 51°18.817 2°54.399 7.931667 3.059424 30.348719 14.725076
2003-03-20 08:48:27 51°18.822 2°54.419 7.973928 3.056161 30.314468 14.725076
2003-03-20 08:48:31 51°18.828 2°54.438 7.615401 3.057845 30.332934 14.657657
2003-03-20 08:48:38 51°18.838 2°54.472 8.050827 3.054266 30.294458 14.994751
2003-03-20 08:48:42 51°18.844 2°54.49 7.615498 3.055529 30.309069 14.893623
2003-03-20 08:48:47 51°18.852 2°54.514 7.53257 3.053214 30.286729 15.163298
2003-03-20 08:48:52 51°18.86 2°54.536 7.53257 3.053214 30.286729 15.163298
2003-03-20 08:48:58 51°18.869 2°54.564 7.453241 3.05174 30.268288 14.994751
2003-03-20 08:49:03 51°18.876 2°54.588 7.291306 3.050898 30.26058 15.095879
2003-03-20 08:49:08 51°18.883 2°54.612 7.774142 3.050056 30.251349 15.02846
2003-03-20 08:49:13 51°18.891 2°54.635 7.531351 3.048477 30.234041 15.298136
2003-03-20 08:49:18 51°18.898 2°54.659 7.569884 3.048582 30.236717 15.399264
2003-03-20 08:49:23 51°18.906 2°54.682 7.569884 3.048582 30.236717 15.399264
2003-03-20 08:49:27 51°18.912 2°54.702 7.92295 3.043529 30.182099 15.399264
2003-03-20 08:49:33 51°18.921 2°54.73 7.490017 3.046582 30.216316 15.534101
2003-03-20 08:49:37 51°18.927 2°54.749 7.400627 3.044792 30.196703 15.466683
2003-03-20 08:49:43 51°18.936 2°54.777 7.441141 3.041845 30.165161 15.466683
2003-03-20 08:49:48 51°18.944 2°54.8 7.638901 3.041213 30.159759 15.60152
2003-03-20 08:49:53 51°18.951 2°54.824 7.638901 3.041213 30.159759 15.60152
2003-03-20 08:49:58 51°18.959 2°54.848 8.077889 3.038687 30.132075 15.702648
2003-03-20 08:50:03 51°18.966 2°54.872 7.358132 3.039529 30.143579 15.668939
2003-03-20 08:50:07 51°18.972 2°54.891 7.714696 3.034266 30.085909 15.567811
2003-03-20 08:50:13 51°18.981 2°54.919 7.475485 3.034897 30.094343 15.60152
2003-03-20 08:50:17 51°18.987 2°54.938 7.471778 3.031213 30.05625 15.432973
2003-03-20 08:50:21 51°18.993 2°54.957 7.471778 3.031213 30.05625 15.432973
2003-03-20 08:50:27 51°19.002 2°54.984 7.349044 3.033003 30.075856 15.500392
2003-03-20 08:50:33 51°19.011 2°55.013 7.269096 3.031739 30.064287 15.534101
2003-03-20 08:50:37 51°19.018 2°55.031 7.147688 3.031213 30.059277 15.466683
2003-03-20 08:50:43 51°19.027 2°55.059 7.427037 3.029845 30.046554 15.399264
2003-03-20 08:50:47 51°19.033 2°55.078 7.585271 3.027845 30.025398 15.298136
2003-03-20 08:50:51 51°19.039 2°55.097 7.585271 3.027845 30.025398 15.298136
2003-03-20 08:50:57 51°19.048 2°55.125 7.302652 3.027424 30.023053 15.399264
2003-03-20 08:51:03 51°19.057 2°55.153 6.942006 3.025003 29.998039 15.298136
2003-03-20 08:51:07 51°19.063 2°55.172 7.223626 3.023845 29.986864 15.095879
2003-03-20 08:51:11 51°19.069 2°55.191 7.776763 3.024371 29.99263 14.994751
2003-03-20 08:51:18 51°19.079 2°55.224 7.341518 3.02195 29.966861 14.859913
2003-03-20 08:51:23 51°19.086 2°55.247 7.341518 3.02195 29.966861 14.859913
2003-03-20 08:51:27 51°19.092 2°55.266 7.77652 3.022476 29.974892 14.927332
2003-03-20 08:51:33 51°19.101 2°55.294 7.134598 3.016898 29.915284 14.657657
2003-03-20 08:51:38 51°19.108 2°55.317 7.340882 3.019003 29.939854 14.556529
2003-03-20 08:51:42 51°19.114 2°55.335 7.658357 3.019213 29.939898 14.556529
2003-03-20 08:51:47 51°19.122 2°55.359 7.540317 3.013424 29.878743 14.48911
2003-03-20 08:51:53 51°19.131 2°55.387 7.540317 3.013424 29.878743 14.48911
2003-03-20 08:51:58 51°19.138 2°55.41 7.941497 3.017319 29.922158 14.354272
2003-03-20 08:52:03 51°19.146 2°55.433 7.58196 3.016371 29.912533 14.522819
2003-03-20 08:52:07 51°19.152 2°55.452 7.702111 3.013003 29.87639 14.48911
2003-03-20 08:52:11 51°19.158 2°55.47 7.74292 3.015213 29.900603 14.590238
2003-03-20 08:52:18 51°19.168 2°55.503 7.14558 3.01395 29.886013 14.758785
2003-03-20 08:52:22 51°19.174 2°55.522 7.14558 3.01395 29.886013 14.758785
2003-03-20 08:52:27 51°19.182 2°55.545 7.626982 3.014792 29.895991 14.961042
2003-03-20 08:52:31 51°19.188 2°55.564 6.214132 3.01395 29.886013 15.06217
2003-03-20 08:52:37 51°19.197 2°55.592 6.13404 3.011529 29.85724 15.399264
2003-03-20 08:52:43 51°19.207 2°55.62 6.132895 3.012582 29.86952 15.466683
2003-03-20 08:52:47 51°19.213 2°55.639 6.136381 3.013424 29.877238 15.736358
2003-03-20 08:52:53 51°19.222 2°55.667 6.136381 3.013424 29.877238 15.736358
2003-03-20 08:52:58 51°19.23 2°55.69 6.132596 3.008898 29.828424 15.904905
2003-03-20 08:53:03 51°19.238 2°55.713 6.133293 3.013424 29.877238 16.208289
2003-03-20 08:53:08 51°19.246 2°55.736 6.135086 3.012582 29.868015 16.410546
2003-03-20 08:53:12 51°19.252 2°55.755 6.134688 3.015213 29.89759 16.74764
2003-03-20 08:53:18 51°19.261 2°55.782 6.135883 3.013635 29.881049 16.781349
2003-03-20 08:53:23 51°19.269 2°55.806 6.135883 3.013635 29.881049 16.781349
2003-03-20 08:53:28 51°19.277 2°55.829 6.133343 3.013635 29.880296 16.882477
2003-03-20 08:53:32 51°19.283 2°55.848 6.133592 3.013108 29.874532 17.185862
2003-03-20 08:53:38 51°19.292 2°55.875 6.13917 3.01374 29.880696 17.051024
2003-03-20 08:53:43 51°19.299 2°55.898 6.137427 3.014161 29.885308 16.882477
2003-03-20 08:53:47 51°19.305 2°55.916 6.131948 3.013424 29.876485 16.646512
2003-03-20 08:53:53 51°19.314 2°55.943 6.131948 3.013424 29.876485 16.646512
2003-03-20 08:53:58 51°19.321 2°55.966 6.130155 3.012582 29.867263 16.410546
2003-03-20 08:54:03 51°19.329 2°55.988 6.132596 3.013319 29.875332 16.039742
2003-03-20 08:54:07 51°19.335 2°56.006 6.129607 3.011003 29.849973 15.534101
2003-03-20 08:54:13 51°19.344 2°56.033 6.13155 3.012687 29.867663 15.230717
2003-03-20 08:54:18 51°19.351 2°56.056 6.130852 3.011319 29.852679 14.725076
2003-03-20 08:54:23 51°19.358 2°56.079 6.130852 3.011319 29.852679 14.725076
2003-03-20 08:54:28 51°19.365 2°56.102 6.133791 3.010056 29.839599 14.219435
2003-03-20 08:54:33 51°19.372 2°56.125 6.132446 3.006161 29.799209 13.646375
2003-03-20 08:54:37 51°19.378 2°56.143 6.133293 3.008266 29.821508 13.241862
2003-03-20 08:54:43 51°19.387 2°56.171 6.130753 3.002898 29.762736 12.904768
2003-03-20 08:54:47 51°19.393 2°56.189 6.132895 3.009319 29.833034 12.601383
2003-03-20 08:54:53 51°19.402 2°56.218 6.132895 3.009319 29.833034 12.601383
2003-03-20 08:54:57 51°19.409 2°56.236 6.134688 3.008266 29.823011 12.399127
2003-03-20 08:55:03 51°19.418 2°56.263 6.134987 3.006793 29.806124 12.331708
2003-03-20 08:55:07 51°19.424 2°56.282 6.135734 3.00774 29.817248 12.432836
2003-03-20 08:55:13 51°19.433 2°56.309 6.132895 3.006056 29.798807 12.297999
2003-03-20 08:55:18 51°19.441 2°56.331 6.133243 3.006793 29.807626 12.466546
2003-03-20 08:55:23 51°19.448 2°56.354 6.133243 3.006793 29.807626 12.466546
2003-03-20 08:55:28 51°19.456 2°56.377 6.130902 3.00753 29.814192 12.80364
2003-03-20 08:55:31 51°19.46 2°56.391 6.131699 3.006687 29.804971 12.837349
2003-03-20 08:55:38 51°19.47 2°56.423 6.132197 3.006266 29.79886 13.005896
2003-03-20 08:55:43 51°19.477 2°56.446 6.132646 3.005109 29.788435 13.140734
2003-03-20 08:55:47 51°19.483 2°56.464 6.134339 3.004372 29.780368 13.477828
2003-03-20 08:55:53 51°19.492 2°56.492 6.134339 3.004372 29.780368 13.477828
2003-03-20 08:55:58 51°19.498 2°56.515 6.132596 3.000267 29.736179 13.713794
2003-03-20 08:56:03 51°19.505 2°56.538 6.13399 3.005319 29.79074 13.983469
2003-03-20 08:56:07 51°19.51 2°56.558 6.1315 3.00353 29.771149 14.421691
2003-03-20 08:56:12 51°19.517 2°56.581 6.128561 3.002161 29.75542 14.522819
2003-03-20 08:56:17 51°19.524 2°56.605 6.12084 3.002688 29.759682 15.02846
2003-03-20 08:56:23 51°19.531 2°56.634 6.12084 3.002688 29.759682 15.02846
2003-03-20 08:56:27 51°19.537 2°56.652 6.116107 3.001635 29.748909 14.927332
2003-03-20 08:56:31 51°19.542 2°56.671 6.118598 3.001425 29.745856 15.06217
2003-03-20 08:56:37 51°19.55 2°56.699 6.114014 3.002898 29.761237 14.725076
2003-03-20 08:56:42 51°19.557 2°56.722 6.10948 3.002688 29.761181 14.556529
2003-03-20 08:56:47 51°19.563 2°56.745 6.112619 3.001846 29.754962 14.185725
2003-03-20 08:56:53 51°19.572 2°56.773 6.112619 3.001846 29.754962 14.185725
2003-03-20 08:56:57 51°19.577 2°56.792 6.10948 3.001004 29.749491 13.477828
2003-03-20 08:57:03 51°19.585 2°56.819 6.109131 2.997425 29.714804 12.972187
2003-03-20 08:57:07 51°19.59 2°56.838 6.105194 2.995846 29.699016 12.432836
2003-03-20 08:57:13 51°19.599 2°56.865 6.104746 2.997846 29.723159 12.23058
2003-03-20 08:57:18 51°19.605 2°56.888 6.104696 2.997741 29.722007 11.65752
2003-03-20 08:57:23 51°19.612 2°56.911 6.106889 2.996583 29.710826 11.219298
2003-03-20 08:57:27 51°19.617 2°56.93 6.106889 2.996583 29.710826 11.219298
2003-03-20 08:57:33 51°19.625 2°56.957 6.105294 2.993846 29.684603 11.050751
2003-03-20 08:57:38 51°19.631 2°56.98 6.106091 2.996162 29.71071 11.017042
2003-03-20 08:57:43 51°19.638 2°57.003 6.100809 2.994162 29.689558 10.949623
2003-03-20 08:57:47 51°19.643 2°57.022 6.102304 2.99532 29.703735 10.949623
2003-03-20 08:57:53 51°19.651 2°57.049 6.102304 2.99532 29.703735 10.949623
2003-03-20 08:57:58 51°19.657 2°57.072 6.10355 2.993636 29.684543 10.949623
2003-03-20 08:58:03 51°19.664 2°57.095 6.108882 2.994478 29.695262 10.915913
2003-03-20 08:58:08 51°19.671 2°57.118 6.105842 2.994057 29.689902 10.848494
2003-03-20 08:58:12 51°19.676 2°57.136 6.106241 2.991636 29.66414 10.983332
2003-03-20 08:58:18 51°19.684 2°57.164 6.105842 2.99332 29.684079 10.983332
2003-03-20 08:58:23 51°19.69 2°57.187 6.105842 2.99332 29.684079 10.983332
2003-03-20 08:58:28 51°19.697 2°57.209 6.102454 2.991004 29.659469 10.983332
2003-03-20 08:58:32 51°19.702 2°57.228 6.099862 2.992057 29.668751 11.017042
2003-03-20 08:58:38 51°19.71 2°57.255 6.09732 2.994373 29.694109 11.11817
2003-03-20 08:58:43 51°19.717 2°57.278 6.092486 2.99332 29.682582 11.017042
2003-03-20 08:58:47 51°19.722 2°57.296 6.095078 2.992057 29.668751 10.949623
2003-03-20 08:58:52 51°19.729 2°57.319 6.095078 2.992057 29.668751 10.949623
2003-03-20 08:58:58 51°19.737 2°57.346 6.090941 2.992689 29.677163 11.017042
2003-03-20 08:59:03 51°19.744 2°57.369 6.095776 2.994373 29.697104 10.949623
2003-03-20 08:59:07 51°19.749 2°57.388 6.091589 2.992583 29.679752 10.915913
2003-03-20 08:59:12 51°19.756 2°57.411 6.093234 2.993425 29.691221 10.814785
2003-03-20 08:59:18 51°19.764 2°57.438 6.093882 2.994478 29.7035 10.747366
2003-03-20 08:59:23 51°19.77 2°57.462 6.099264 2.988373 29.638128 10.781076
2003-03-20 08:59:27 51°19.775 2°57.48 6.099264 2.988373 29.638128 10.781076
2003-03-20 08:59:31 51°19.781 2°57.499 6.096523 2.992794 29.685052 10.679947
2003-03-20 08:59:37 51°19.789 2°57.527 6.093583 2.99511 29.711917 10.747366
2003-03-20 08:59:43 51°19.797 2°57.554 6.097769 2.994899 29.708861 10.747366
2003-03-20 08:59:47 51°19.802 2°57.573 6.10061 2.996057 29.723045 10.646238
2003-03-20 08:59:52 51°19.808 2°57.596 6.10061 2.996057 29.723045 10.646238
2003-03-20 08:59:58 51°19.816 2°57.624 6.092885 2.993846 29.69808 10.646238
2003-03-20 09:00:02 51°19.822 2°57.642 6.096623 2.99511 29.711917 10.54511
2003-03-20 09:00:07 51°19.829 2°57.665 6.096124 2.996478 29.725409 10.443982
2003-03-20 09:00:13 51°19.837 2°57.693 6.096623 2.991847 29.675424 10.54511
2003-03-20 09:00:18 51°19.843 2°57.716 6.094978 2.996899 29.730022 10.679947
2003-03-20 09:00:23 51°19.851 2°57.739 6.094978 2.996899 29.730022 10.679947
2003-03-20 09:00:27 51°19.856 2°57.758 6.096274 2.990689 29.661994 10.54511
2003-03-20 09:00:33 51°19.863 2°57.786 6.092636 2.996899 29.730771 10.612529
2003-03-20 09:00:37 51°19.868 2°57.805 6.092636 2.998267 29.745014 10.54511
2003-03-20 09:00:43 51°19.876 2°57.832 6.093234 2.995636 29.715434 10.578819
2003-03-20 09:00:47 51°19.882 2°57.851 6.095476 2.993636 29.695774 10.713657
2003-03-20 09:00:53 51°19.889 2°57.879 6.095476 2.993636 29.695774 10.713657
2003-03-20 09:00:57 51°19.895 2°57.897 6.092187 2.992899 29.688451 10.679947
2003-03-20 09:01:03 51°19.903 2°57.925 6.093931 2.997215 29.736481 10.5114
2003-03-20 09:01:07 51°19.909 2°57.943 6.091639 2.999004 29.756088 10.781076
2003-03-20 09:01:13 51°19.917 2°57.97 6.095327 2.996162 29.727198 10.814785
2003-03-20 09:01:17 51°19.922 2°57.989 6.094579 2.999215 29.758395 10.781076
2003-03-20 09:01:23 51°19.931 2°58.017 6.094579 2.999215 29.758395 10.781076
2003-03-20 09:01:28 51°19.937 2°58.04 6.090742 2.995846 29.722238 10.679947
2003-03-20 09:01:33 51°19.944 2°58.063 6.093383 2.998899 29.755686 10.747366
2003-03-20 09:01:38 51°19.951 2°58.086 6.095078 2.996794 29.733368 10.713657
2003-03-20 09:01:43 51°19.957 2°58.109 6.093732 2.995741 29.720335 10.747366
2003-03-20 09:01:47 51°19.963 2°58.128 6.093782 2.996688 29.730715 10.578819
2003-03-20 09:01:53 51°19.971 2°58.156 6.091788 2.998057 29.747209 10.443982
2003-03-20 09:01:57 51°19.976 2°58.174 6.091788 2.998057 29.747209 10.443982
2003-03-20 09:02:03 51°19.985 2°58.202 6.090243 2.994057 29.704132 10.5114
2003-03-20 09:02:07 51°19.99 2°58.221 6.098367 2.99111 29.671844 10.578819
2003-03-20 09:02:13 51°19.998 2°58.249 6.093034 2.991215 29.672248 10.679947
2003-03-20 09:02:18 51°20.005 2°58.272 6.094978 2.994899 29.713358 10.747366
2003-03-20 09:02:23 51°20.012 2°58.295 6.095327 2.996057 29.726044 10.781076
2003-03-20 09:02:27 51°20.017 2°58.314 6.095327 2.996057 29.726044 10.781076
2003-03-20 09:02:31 51°20.023 2°58.333 6.096374 2.996583 29.731061 10.848494
2003-03-20 09:02:37 51°20.031 2°58.361 6.101955 2.995004 29.714511 10.949623
2003-03-20 09:02:43 51°20.039 2°58.389 6.1035 2.996267 29.728351 10.915913
2003-03-20 09:02:48 51°20.045 2°58.413 6.102802 2.997215 29.737981 10.983332
2003-03-20 09:02:53 51°20.052 2°58.436 6.102802 2.997215 29.737981 10.983332
2003-03-20 09:02:57 51°20.058 2°58.454 6.100809 2.997846 29.744151 10.983332
2003-03-20 09:03:03 51°20.066 2°58.482 6.101557 2.997951 29.744555 10.915913
2003-03-20 09:03:07 51°20.072 2°58.501 6.098716 2.997215 29.735731 11.017042
2003-03-20 09:03:13 51°20.08 2°58.529 6.098566 2.997951 29.740804 11.185589
2003-03-20 09:03:18 51°20.087 2°58.553 6.09737 2.992689 29.681653 11.050751
2003-03-20 09:03:23 51°20.093 2°58.576 6.09737 2.992689 29.681653 11.050751
2003-03-20 09:03:27 51°20.099 2°58.596 6.098068 2.995952 29.716645 11.11817
2003-03-20 09:03:33 51°20.106 2°58.624 6.096822 2.999214 29.754643 11.151879
2003-03-20 09:03:37 51°20.112 2°58.643 6.096623 2.999846 29.761563 11.185589
2003-03-20 09:03:43 51°20.121 2°58.671 6.098068 2.99753 29.736191 11.151879
2003-03-20 09:03:48 51°20.128 2°58.695 6.096673 2.999846 29.761563 11.185589
2003-03-20 09:03:53 51°20.135 2°58.718 6.096673 2.999846 29.761563 11.185589
2003-03-20 09:03:58 51°20.141 2°58.742 6.095825 2.998478 29.748821 11.253007
2003-03-20 09:04:02 51°20.147 2°58.761 6.093383 2.999741 29.76191 11.151879
2003-03-20 09:04:07 51°20.154 2°58.785 6.08795 2.99932 29.758798 11.151879
2003-03-20 09:04:13 51°20.162 2°58.813 6.087053 2.99953 29.759604 11.219298
2003-03-20 09:04:17 51°20.168 2°58.832 6.085308 3.000267 29.769179 11.185589
2003-03-20 09:04:23 51°20.176 2°58.86 6.084112 2.998057 29.744958 11.185589
2003-03-20 09:04:28 51°20.183 2°58.884 6.084112 2.998057 29.744958 11.185589
2003-03-20 09:04:33 51°20.19 2°58.907 6.085009 2.998794 29.754532 11.286717
2003-03-20 09:04:38 51°20.197 2°58.93 6.08152 2.998688 29.754129 11.354136
2003-03-20 09:04:43 51°20.205 2°58.954 6.082168 2.999004 29.759842 11.522683
2003-03-20 09:04:47 51°20.21 2°58.973 6.083115 2.999846 29.772075 11.556392
2003-03-20 09:04:53 51°20.219 2°59.001 6.083115 2.999846 29.772075 11.556392
2003-03-20 09:04:57 51°20.224 2°59.02 6.08137 2.998794 29.76204 11.69123
2003-03-20 09:05:03 51°20.232 2°59.049 6.082168 2.996583 29.739313 11.623811
2003-03-20 09:05:07 51°20.238 2°59.067 6.082916 2.997531 29.751198 11.758648
2003-03-20 09:05:13 51°20.246 2°59.096 6.083414 2.99953 29.773121 11.69123
2003-03-20 09:05:17 51°20.252 2°59.115 6.083813 2.998794 29.765795 11.69123
2003-03-20 09:05:23 51°20.26 2°59.143 6.083813 2.998794 29.765795 11.69123
2003-03-20 09:05:28 51°20.267 2°59.167 6.082916 2.998057 29.757718 11.455264
2003-03-20 09:05:33 51°20.274 2°59.191 6.079775 2.995636 29.731181 11.556392
2003-03-20 09:05:37 51°20.28 2°59.209 6.07833 2.996688 29.741217 11.320426
2003-03-20 09:05:42 51°20.286 2°59.233 6.078778 2.99711 29.745832 11.387845
2003-03-20 09:05:48 51°20.295 2°59.261 6.078529 2.996899 29.744275 11.387845
2003-03-20 09:05:53 51°20.301 2°59.285 6.078529 2.996899 29.744275 11.387845
2003-03-20 09:05:58 51°20.308 2°59.308 6.083215 2.996057 29.735046 11.455264
2003-03-20 09:06:02 51°20.314 2°59.327 6.077632 2.996478 29.741161 11.387845
2003-03-20 09:06:07 51°20.321 2°59.35 6.080673 2.98911 29.660412 11.522683
2003-03-20 09:06:12 51°20.328 2°59.373 6.079476 2.994373 29.718837 11.488973
2003-03-20 09:06:18 51°20.337 2°59.401 6.083614 2.99332 29.706551 11.522683
2003-03-20 09:06:23 51°20.344 2°59.424 6.080972 2.991636 29.687345 11.488973
2003-03-20 09:06:27 51°20.349 2°59.443 6.080972 2.991636 29.687345 11.488973
2003-03-20 09:06:32 51°20.356 2°59.466 6.084262 2.994057 29.714626 11.455264
2003-03-20 09:06:37 51°20.363 2°59.489 6.081171 2.98911 29.659663 11.421554
2003-03-20 09:06:43 51°20.371 2°59.517 6.083464 2.991952 29.691554 11.421554
2003-03-20 09:06:47 51°20.376 2°59.536 6.081969 2.991847 29.69115 11.253007
2003-03-20 09:06:53 51°20.385 2°59.564 6.081969 2.991847 29.69115 11.253007
2003-03-20 09:06:58 51°20.392 2°59.587 6.082218 2.995531 29.730027 11.11817
2003-03-20 09:07:02 51°20.397 2°59.606 6.07823 2.987847 29.645076 11.050751
2003-03-20 09:07:07 51°20.404 2°59.629 6.080423 2.994057 29.713126 11.11817
2003-03-20 09:07:13 51°20.413 2°59.657 6.077133 2.992373 29.695419 10.915913
2003-03-20 09:07:18 51°20.42 2°59.679 6.079426 2.992057 29.691959 10.915913
2003-03-20 09:07:23 51°20.426 2°59.703 6.076136 2.989426 29.663123 10.814785
2003-03-20 09:07:28 51°20.433 2°59.726 6.076136 2.989426 29.663123 10.814785
2003-03-20 09:07:31 51°20.437 2°59.74 6.070353 2.985531 29.620454 10.814785
2003-03-20 09:07:38 51°20.448 2°59.772 6.076286 2.992163 29.69536 10.679947
2003-03-20 09:07:43 51°20.454 2°59.796 6.074142 2.990478 29.677653 10.848494
2003-03-20 09:07:47 51°20.46 2°59.814 6.075637 2.99111 29.686072 10.679947
2003-03-20 09:07:53 51°20.468 2°59.842 6.075637 2.99111 29.686072 10.679947
2003-03-20 09:07:57 51°20.474 2°59.861 6.080124 2.990899 29.683016 10.679947
2003-03-20 09:08:03 51°20.482 2°59.889 6.081271 2.989742 29.672574 10.915913
2003-03-20 09:08:07 51°20.488 2°59.908 6.080473 2.987952 29.652215 10.679947
2003-03-20 09:08:13 51°20.496 2°59.936 6.082068 2.988689 29.661787 10.747366
2003-03-20 09:08:18 51°20.503 2°59.959 6.081121 2.986268 29.635256 10.646238
2003-03-20 09:08:23 51°20.51 2°59.983 6.081121 2.986268 29.635256 10.646238
2003-03-20 09:08:28 51°20.516 3°0.006 6.082168 2.989742 29.671076 10.679947
2003-03-20 09:08:33 51°20.524 3°0.03 6.082018 2.989005 29.661504 10.781076
2003-03-20 09:08:38 51°20.53 3°0.053 6.080224 2.990584 29.678057 10.679947
2003-03-20 09:08:43 51°20.537 3°0.077 6.076485 2.987637 29.645013 10.882204
2003-03-20 09:08:47 51°20.542 3°0.096 6.078778 2.987321 29.640806 10.713657
2003-03-20 09:08:53 51°20.55 3°0.125 6.078778 2.987321 29.640806 10.713657
2003-03-20 09:08:58 51°20.557 3°0.148 6.080673 2.989847 29.667737 10.814785
2003-03-20 09:09:03 51°20.564 3°0.172 6.079825 2.988794 29.655455 10.814785
2003-03-20 09:09:07 51°20.569 3°0.191 6.079975 2.986268 29.628526 10.882204
2003-03-20 09:09:13 51°20.577 3°0.219 6.083963 2.990057 29.670792 10.949623
2003-03-20 09:09:18 51°20.584 3°0.243 6.085009 2.990057 29.67229 10.915913
2003-03-20 09:09:23 51°20.59 3°0.266 6.082916 2.989531 29.665774 10.781076
2003-03-20 09:09:27 51°20.596 3°0.285 6.082916 2.989531 29.665774 10.781076
2003-03-20 09:09:33 51°20.604 3°0.314 6.088848 2.986689 29.633886 10.882204
2003-03-20 09:09:37 51°20.609 3°0.333 6.090592 2.986584 29.631985 10.983332
2003-03-20 09:09:43 51°20.617 3°0.361 6.088548 2.988584 29.653897 10.915913
2003-03-20 09:09:47 51°20.622 3°0.38 6.090094 2.987215 29.638157 10.983332
2003-03-20 09:09:53 51°20.63 3°0.408 6.0879 2.986163 29.62513 10.814785
2003-03-20 09:09:57 51°20.635 3°0.427 6.0879 2.986163 29.62513 10.814785
2003-03-20 09:10:03 51°20.643 3°0.456 6.087252 2.989847 29.663994 10.646238
2003-03-20 09:10:08 51°20.649 3°0.48 6.083464 2.989321 29.655983 10.376563
2003-03-20 09:10:13 51°20.656 3°0.504 6.08157 2.989742 29.659847 10.208016
2003-03-20 09:10:17 51°20.661 3°0.523 6.080174 2.988689 29.647569 10.241725
2003-03-20 09:10:23 51°20.67 3°0.551 6.080174 2.988689 29.647569 10.241725
2003-03-20 09:10:28 51°20.676 3°0.575 6.078728 2.986479 29.624104 10.208016
2003-03-20 09:10:33 51°20.683 3°0.598 6.074491 2.986268 29.623293 10.039469
2003-03-20 09:10:38 51°20.69 3°0.622 6.07474 2.986479 29.627094 10.174306
2003-03-20 09:10:42 51°20.695 3°0.641 6.078678 2.9889 29.655112 10.208016
2003-03-20 09:10:47 51°20.701 3°0.665 6.075937 2.986058 29.624724 10.106888
2003-03-20 09:10:53 51°20.709 3°0.694 6.075937 2.986058 29.624724 10.106888
2003-03-20 09:10:58 51°20.716 3°0.718 6.075986 2.984795 29.611635 10.073178
2003-03-20 09:11:03 51°20.722 3°0.741 6.073444 2.988794 29.656203 10.241725
2003-03-20 09:11:07 51°20.728 3°0.761 6.072397 2.986373 29.630427 10.039469
2003-03-20 09:11:13 51°20.735 3°0.789 6.073344 2.986373 29.631922 10.005759
2003-03-20 09:11:18 51°20.742 3°0.813 6.074241 2.985531 29.625687 9.837212
2003-03-20 09:11:23 51°20.749 3°0.836 6.074042 2.983953 29.608388 9.938341
2003-03-20 09:11:27 51°20.754 3°0.856 6.074042 2.983953 29.608388 9.938341
2003-03-20 09:11:33 51°20.762 3°0.885 6.073145 2.9869 29.640681 9.803503
2003-03-20 09:11:37 51°20.767 3°0.904 6.073843 2.986058 29.631454 9.769794
2003-03-20 09:11:43 51°20.774 3°0.933 6.074142 2.986058 29.632201 9.736084
2003-03-20 09:11:47 51°20.779 3°0.953 6.069704 2.981953 29.589465 9.702375
2003-03-20 09:11:51 51°20.784 3°0.972 6.075039 2.983321 29.60371 9.668665
2003-03-20 09:11:58 51°20.792 3°1.007 6.075039 2.983321 29.60371 9.668665
2003-03-20 09:12:03 51°20.797 3°1.032 6.069256 2.986795 29.640275 9.769794
2003-03-20 09:12:07 51°20.802 3°1.052 6.070303 2.983005 29.599503 9.736084
2003-03-20 09:12:13 51°20.809 3°1.081 6.070502 2.98711 29.645232 9.870922
2003-03-20 09:12:17 51°20.814 3°1.101 6.070901 2.986058 29.633697 9.837212
2003-03-20 09:12:23 51°20.821 3°1.13 6.070901 2.986058 29.633697 9.837212
2003-03-20 09:12:27 51°20.826 3°1.149 6.069256 2.986584 29.638716 9.870922
2003-03-20 09:12:33 51°20.833 3°1.178 6.072995 2.985953 29.632544 10.005759
2003-03-20 09:12:38 51°20.839 3°1.202 6.072247 2.985847 29.63139 9.736084
2003-03-20 09:12:43 51°20.845 3°1.227 6.071051 2.984268 29.614837 9.803503
2003-03-20 09:12:48 51°20.851 3°1.251 6.072247 2.981216 29.581392 9.837212
2003-03-20 09:12:53 51°20.857 3°1.276 6.072247 2.981216 29.581392 9.837212
2003-03-20 09:12:58 51°20.863 3°1.3 6.071449 2.985742 29.630985 9.702375
2003-03-20 09:13:03 51°20.87 3°1.324 6.073145 2.983321 29.605204 9.803503
2003-03-20 09:13:07 51°20.874 3°1.344 6.073693 2.985216 29.625218 9.702375
2003-03-20 09:13:13 51°20.881 3°1.374 6.077382 2.984058 29.613278 9.702375
2003-03-20 09:13:17 51°20.886 3°1.393 6.077831 2.983637 29.608664 9.668665
2003-03-20 09:13:23 51°20.894 3°1.422 6.077831 2.983637 29.608664 9.668665
2003-03-20 09:13:27 51°20.898 3°1.442 6.075089 2.9849 29.622505 9.736084
2003-03-20 09:13:33 51°20.905 3°1.472 6.075937 2.979848 29.567147 9.736084
2003-03-20 09:13:37 51°20.91 3°1.492 6.076934 2.981111 29.580239 9.736084
2003-03-20 09:13:43 51°20.917 3°1.521 6.076734 2.985637 29.627588 9.668665
2003-03-20 09:13:47 51°20.922 3°1.541 6.075239 2.985426 29.624533 9.736084
2003-03-20 09:13:53 51°20.929 3°1.571 6.078778 2.981637 29.581525 9.870922
2003-03-20 09:13:58 51°20.935 3°1.595 6.078778 2.981637 29.581525 9.870922
2003-03-20 09:14:03 51°20.941 3°1.62 6.075737 2.986163 29.631111 9.702375
2003-03-20 09:14:07 51°20.946 3°1.639 6.075039 2.985531 29.623444 9.702375
2003-03-20 09:14:11 51°20.951 3°1.659 6.075288 2.9809 29.571961 9.769794
2003-03-20 09:14:17 51°20.958 3°1.689 6.074541 2.98269 29.592309 9.702375
2003-03-20 09:14:23 51°20.965 3°1.718 6.074541 2.98269 29.592309 9.702375
2003-03-20 09:14:27 51°20.97 3°1.738 6.074142 2.987742 29.647663 9.601247
2003-03-20 09:14:31 51°20.975 3°1.758 6.074042 2.987321 29.64305 9.769794
2003-03-20 09:14:38 51°20.983 3°1.792 6.076634 2.987321 29.644546 9.904631
2003-03-20 09:14:43 51°20.989 3°1.817 6.076086 2.985637 29.626092 9.702375
2003-03-20 09:14:48 51°20.995 3°1.842 6.077681 2.984374 29.612253 9.702375
2003-03-20 09:14:53 51°21.001 3°1.866 6.074241 2.988373 29.658326 9.837212
2003-03-20 09:14:58 51°21.007 3°1.891 6.074241 2.988373 29.658326 9.837212
2003-03-20 09:15:03 51°21.013 3°1.916 6.075887 2.986374 29.634166 9.769794
2003-03-20 09:15:08 51°21.019 3°1.94 6.07489 2.986268 29.63376 9.702375
2003-03-20 09:15:13 51°21.025 3°1.965 6.074491 2.988584 29.65689 9.769794
2003-03-20 09:15:17 51°21.03 3°1.985 6.073892 2.990057 29.674536 9.769794
2003-03-20 09:15:23 51°21.038 3°2.014 6.073892 2.990057 29.674536 9.769794
2003-03-20 09:15:28 51°21.044 3°2.039 6.076834 2.983532 29.601533 9.803503
2003-03-20 09:15:33 51°21.05 3°2.064 6.072646 2.981848 29.585324 9.837212
2003-03-20 09:15:37 51°21.055 3°2.084 6.07474 2.991005 29.685668 10.140597
2003-03-20 09:15:42 51°21.062 3°2.109 6.073294 2.988794 29.661443 10.241725
2003-03-20 09:15:48 51°21.069 3°2.138 6.075887 2.989321 29.665713 10.241725
2003-03-20 09:15:53 51°21.075 3°2.163 6.073793 2.98269 29.592309 10.309144
2003-03-20 09:15:58 51°21.082 3°2.188 6.073793 2.98269 29.592309 10.309144
2003-03-20 09:16:02 51°21.087 3°2.207 6.075937 2.990373 29.677997 10.376563
2003-03-20 09:16:07 51°21.093 3°2.232 6.073643 2.987952 29.64997 10.578819
2003-03-20 09:16:13 51°21.101 3°2.262 6.075288 2.983532 29.603028 10.578819
2003-03-20 09:16:18 51°21.107 3°2.287 6.07823 2.988584 29.659136 10.713657
2003-03-20 09:16:23 51°21.113 3°2.312 6.07823 2.988584 29.659136 10.713657
2003-03-20 09:16:28 51°21.119 3°2.337 6.077831 2.986795 29.638779 10.747366
2003-03-20 09:16:33 51°21.126 3°2.362 6.075189 2.990478 29.6799 10.781076
2003-03-20 09:16:38 51°21.132 3°2.387 6.075787 2.994373 29.722587 10.747366
2003-03-20 09:16:43 51°21.138 3°2.412 6.0714 2.991531 29.689937 10.713657
2003-03-20 09:16:47 51°21.143 3°2.432 6.074391 2.995847 29.737991 10.612529
2003-03-20 09:16:52 51°21.15 3°2.457 6.072845 2.998267 29.762279 10.443982
2003-03-20 09:16:57 51°21.156 3°2.482 6.072845 2.998267 29.762279 10.443982
2003-03-20 09:17:03 51°21.164 3°2.512 6.0714 2.99711 29.748835 10.54511
2003-03-20 09:17:07 51°21.169 3°2.532 6.072048 3.002583 29.809595 10.747366
2003-03-20 09:17:12 51°21.176 3°2.557 6.06786 2.999636 29.778032 10.814785
2003-03-20 09:17:17 51°21.182 3°2.582 6.068458 3.001741 29.800362 11.017042
2003-03-20 09:17:23 51°21.189 3°2.613 6.067411 3.005004 29.839155 11.050751
2003-03-20 09:17:28 51°21.196 3°2.638 6.067411 3.005004 29.839155 11.050751
2003-03-20 09:17:33 51°21.203 3°2.663 6.066463 3.002478 29.81145 11.151879
2003-03-20 09:17:37 51°21.208 3°2.683 6.064918 3.000899 29.795641 11.253007
2003-03-20 09:17:43 51°21.216 3°2.713 6.064369 3.001951 29.807184 11.387845
2003-03-20 09:17:47 51°21.221 3°2.733 6.064968 3.001741 29.80638 11.387845
2003-03-20 09:17:51 51°21.226 3°2.753 6.064968 3.001741 29.80638 11.387845
2003-03-20 09:17:58 51°21.235 3°2.789 6.066015 3.002478 29.813708 11.253007
2003-03-20 09:18:03 51°21.242 3°2.814 6.066314 3.001215 29.80136 11.185589
2003-03-20 09:18:07 51°21.248 3°2.833 6.065516 3.002478 29.815966 11.11817
2003-03-20 09:18:13 51°21.255 3°2.864 6.064768 3.000267 29.792475 11.050751
2003-03-20 09:18:18 51°21.262 3°2.889 6.066663 3.005109 29.84709 11.08446
2003-03-20 09:18:22 51°21.267 3°2.909 6.066663 3.005109 29.84709 11.08446
2003-03-20 09:18:27 51°21.273 3°2.934 6.06412 3.003846 29.833234 11.151879
2003-03-20 09:18:33 51°21.281 3°2.965 6.066114 3.002688 29.81978 11.050751
2003-03-20 09:18:38 51°21.288 3°2.99 6.064619 3.003636 29.829418 11.08446
2003-03-20 09:18:43 51°21.294 3°3.015 6.067261 3.006899 29.865213 11.050751
2003-03-20 09:18:47 51°21.3 3°3.035 6.070402 3.009951 29.899459 11.151879
2003-03-20 09:18:53 51°21.308 3°3.065 6.070402 3.009951 29.899459 11.151879
2003-03-20 09:18:58 51°21.314 3°3.09 6.071449 3.004478 29.840915 11.286717
2003-03-20 09:19:03 51°21.32 3°3.115 6.0714 3.012372 29.926024 11.286717
2003-03-20 09:19:07 51°21.326 3°3.135 6.073494 3.006793 29.864812 11.387845
2003-03-20 09:19:13 51°21.334 3°3.165 6.072147 3.011635 29.917939 11.08446
2003-03-20 09:19:17 51°21.339 3°3.185 6.075039 3.012372 29.924513 11.151879
2003-03-20 09:19:23 51°21.347 3°3.215 6.071001 3.011951 29.918383 11.08446
2003-03-20 09:19:28 51°21.353 3°3.241 6.071001 3.011951 29.918383 11.08446
2003-03-20 09:19:33 51°21.36 3°3.266 6.073294 3.012583 29.923802 10.915913
2003-03-20 09:19:37 51°21.365 3°3.286 6.072596 3.008898 29.882628 10.882204
2003-03-20 09:19:43 51°21.373 3°3.316 6.074491 3.016267 29.962716 10.983332
2003-03-20 09:19:47 51°21.378 3°3.336 6.070702 3.01374 29.93424 11.017042
2003-03-20 09:19:53 51°21.387 3°3.366 6.071549 3.019109 29.992391 11.017042
2003-03-20 09:19:57 51°21.392 3°3.386 6.071549 3.019109 29.992391 11.017042
2003-03-20 09:20:03 51°21.4 3°3.417 6.07135 3.017635 29.976219 10.949623
2003-03-20 09:20:08 51°21.406 3°3.442 6.068059 3.017109 29.9712 10.949623
2003-03-20 09:20:13 51°21.413 3°3.467 6.067261 3.013951 29.937305 11.08446
2003-03-20 09:20:18 51°21.419 3°3.492 6.063322 3.018793 29.991197 11.11817
2003-03-20 09:20:22 51°21.425 3°3.512 6.063322 3.018793 29.991197 11.11817
2003-03-20 09:20:27 51°21.431 3°3.538 6.063023 3.014477 29.944592 11.219298
2003-03-20 09:20:33 51°21.439 3°3.568 6.061677 3.01753 29.976577 11.354136
2003-03-20 09:20:37 51°21.444 3°3.588 6.062375 3.014688 29.946902 11.387845
2003-03-20 09:20:43 51°21.452 3°3.618 6.062175 3.017004 29.972315 11.286717
2003-03-20 09:20:47 51°21.458 3°3.639 6.058136 3.017004 29.974584 11.253007
2003-03-20 09:20:53 51°21.465 3°3.669 6.058136 3.017004 29.974584 11.253007
2003-03-20 09:20:58 51°21.472 3°3.694 6.057039 3.019951 30.00845 11.185589
2003-03-20 09:21:03 51°21.479 3°3.719 6.059931 3.017951 29.98801 11.017042
2003-03-20 09:21:07 51°21.484 3°3.74 6.059233 3.015214 29.957971 11.11817
2003-03-20 09:21:13 51°21.492 3°3.77 6.057837 3.010793 29.907943 11.11817
2003-03-20 09:21:17 51°21.497 3°3.79 6.057488 3.020898 30.02264 11.050751
2003-03-20 09:21:23 51°21.505 3°3.821 6.057488 3.020898 30.02264 11.050751
2003-03-20 09:21:27 51°21.51 3°3.841 6.060879 3.009635 29.899768 11.151879
2003-03-20 09:21:31 51°21.516 3°3.861 6.057139 3.012372 29.929802 11.08446
2003-03-20 09:21:38 51°21.525 3°3.896 6.054645 3.010899 29.91514 11.11817
2003-03-20 09:21:43 51°21.531 3°3.921 6.06023 3.015425 29.96482 11.08446
2003-03-20 09:21:47 51°21.537 3°3.942 6.052401 3.014372 29.954779 11.11817
2003-03-20 09:21:53 51°21.545 3°3.972 6.058435 3.009741 29.902433 11.11817
2003-03-20 09:21:58 51°21.552 3°3.997 6.058435 3.009741 29.902433 11.11817
2003-03-20 09:22:03 51°21.558 3°4.022 6.052201 3.018372 29.997176 11.11817
2003-03-20 09:22:08 51°21.564 3°4.048 6.053598 3.011109 29.918962 10.983332
2003-03-20 09:22:13 51°21.57 3°4.074 6.051154 3.017951 29.993311 10.882204
2003-03-20 09:22:17 51°21.575 3°4.095 6.048361 3.015319 29.966692 10.747366
2003-03-20 09:22:23 51°21.582 3°4.125 6.051553 3.013004 29.942026 10.915913
2003-03-20 09:22:27 51°21.587 3°4.146 6.051553 3.013004 29.942026 10.915913
2003-03-20 09:22:31 51°21.592 3°4.166 6.052201 3.011004 29.921584 10.882204
2003-03-20 09:22:38 51°21.6 3°4.203 6.052151 3.02153 30.037917 10.949623
2003-03-20 09:22:43 51°21.606 3°4.229 6.052052 3.015635 29.971672 10.915913
2003-03-20 09:22:47 51°21.61 3°4.249 6.054146 3.015846 29.974741 11.050751
2003-03-20 09:22:53 51°21.618 3°4.28 6.054146 3.015846 29.974741 11.050751
2003-03-20 09:22:58 51°21.624 3°4.306 6.053648 3.012267 29.93545 10.949623
2003-03-20 09:23:03 51°21.63 3°4.332 6.053099 3.01953 30.015953 10.915913
2003-03-20 09:23:07 51°21.634 3°4.352 6.0527 3.01974 30.019023 11.017042
2003-03-20 09:23:13 51°21.641 3°4.383 6.049708 3.020056 30.021733 10.848494
2003-03-20 09:23:18 51°21.648 3°4.409 6.049408 3.023004 30.05638 10.949623
2003-03-20 09:23:22 51°21.652 3°4.429 6.049408 3.023004 30.05638 10.949623
2003-03-20 09:23:27 51°21.658 3°4.455 6.051353 3.020898 30.031739 10.882204
2003-03-20 09:23:33 51°21.666 3°4.486 6.051353 3.020688 30.028669 10.646238
2003-03-20 09:23:37 51°21.67 3°4.507 6.04886 3.024161 30.066821 10.443982
2003-03-20 09:23:43 51°21.677 3°4.538 6.047812 3.023109 30.055259 10.5114
2003-03-20 09:23:47 51°21.682 3°4.559 6.047513 3.021319 30.037122 10.376563
2003-03-20 09:23:53 51°21.689 3°4.59 6.046964 3.023109 30.056777 10.309144
2003-03-20 09:23:57 51°21.694 3°4.611 6.046964 3.023109 30.056777 10.309144
2003-03-20 09:24:03 51°21.701 3°4.642 6.050107 3.026688 30.094572 10.309144
2003-03-20 09:24:08 51°21.707 3°4.668 6.044171 3.02553 30.082612 10.275435
2003-03-20 09:24:13 51°21.713 3°4.694 6.044321 3.020898 30.032498 10.106888
2003-03-20 09:24:18 51°21.719 3°4.719 6.042824 3.024056 30.067943 10.073178
2003-03-20 09:24:23 51°21.725 3°4.745 6.043323 3.025004 30.07911 10.106888
2003-03-20 09:24:28 51°21.731 3°4.771 6.043323 3.025004 30.07911 10.106888
2003-03-20 09:24:33 51°21.736 3°4.797 6.043124 3.022583 30.052514 9.904631
2003-03-20 09:24:37 51°21.741 3°4.818 6.046266 3.024267 30.071775 10.005759
2003-03-20 09:24:43 51°21.748 3°4.85 6.041677 3.030267 30.138459 9.769794
2003-03-20 09:24:47 51°21.753 3°4.87 6.041029 3.022583 30.05631 9.837212
2003-03-20 09:24:51 51°21.758 3°4.891 6.04457 3.029109 30.128019 9.803503
2003-03-20 09:24:58 51°21.766 3°4.927 6.04457 3.029109 30.128019 9.803503
2003-03-20 09:25:02 51°21.77 3°4.948 6.04457 3.02774 30.113742 9.904631
2003-03-20 09:25:07 51°21.776 3°4.974 6.04048 3.030898 30.14997 9.837212
2003-03-20 09:25:11 51°21.781 3°4.995 6.04482 3.029214 30.132221 9.904631
2003-03-20 09:25:17 51°21.788 3°5.026 6.041478 3.025425 30.090576 9.870922
2003-03-20 09:25:23 51°21.795 3°5.057 6.041478 3.025425 30.090576 9.870922
2003-03-20 09:25:27 51°21.8 3°5.078 6.046017 3.025425 30.089056 9.870922
2003-03-20 09:25:33 51°21.807 3°5.109 6.043523 3.028688 30.125675 10.073178
2003-03-20 09:25:37 51°21.812 3°5.13 6.042226 3.034056 30.184682 10.005759
2003-03-20 09:25:43 51°21.819 3°5.162 6.041777 3.031004 30.150365 10.005759
2003-03-20 09:25:47 51°21.824 3°5.183 6.039881 3.031951 30.160016 10.039469
2003-03-20 09:25:51 51°21.829 3°5.204 6.039881 3.031951 30.160016 10.039469
2003-03-20 09:25:58 51°21.837 3°5.24 6.04053 3.033004 30.172348 10.005759
2003-03-20 09:26:02 51°21.842 3°5.261 6.040729 3.033319 30.175819 10.073178
2003-03-20 09:26:07 51°21.848 3°5.287 6.038784 3.035109 30.19549 10.106888
2003-03-20 09:26:13 51°21.856 3°5.318 6.04033 3.027004 30.106406 10.106888
2003-03-20 09:26:18 51°21.861 3°5.345 6.040131 3.034056 30.183919 10.241725
2003-03-20 09:26:23 51°21.867 3°5.371 6.040131 3.034056 30.183919 10.241725
2003-03-20 09:26:28 51°21.873 3°5.397 6.042475 3.02753 30.11295 10.241725
2003-03-20 09:26:33 51°21.879 3°5.423 6.039981 3.030056 30.139953 10.342853
2003-03-20 09:26:38 51°21.884 3°5.449 6.04038 3.02953 30.13493 10.443982
2003-03-20 09:26:42 51°21.889 3°5.47 6.046865 3.030267 30.143028 10.747366
2003-03-20 09:26:47 51°21.894 3°5.496 6.045119 3.028793 30.126832 10.949623
2003-03-20 09:26:53 51°21.901 3°5.528 6.038086 3.03153 30.157674 10.915913
2003-03-20 09:26:57 51°21.905 3°5.549 6.038086 3.03153 30.157674 10.915913
2003-03-20 09:27:03 51°21.912 3°5.58 6.038535 3.031635 30.158831 10.949623
2003-03-20 09:27:08 51°21.917 3°5.607 6.039383 3.03553 30.202408 10.949623
2003-03-20 09:27:11 51°21.92 3°5.622 6.042824 3.030372 30.144185 10.983332
2003-03-20 09:27:18 51°21.928 3°5.659 6.041677 3.035109 30.19549 10.915913
2003-03-20 09:27:23 51°21.933 3°5.686 6.041378 3.032583 30.166958 10.848494
2003-03-20 09:27:28 51°21.939 3°5.712 6.041378 3.032583 30.166958 10.848494
2003-03-20 09:27:33 51°21.944 3°5.738 6.036639 3.038793 30.236759 10.814785
2003-03-20 09:27:37 51°21.949 3°5.759 6.037238 3.039846 30.249862 10.477691
2003-03-20 09:27:43 51°21.955 3°5.79 6.03614 3.038372 30.233658 10.376563
2003-03-20 09:27:47 51°21.96 3°5.811 6.031999 3.041109 30.262989 10.208016
2003-03-20 09:27:52 51°21.966 3°5.838 6.030453 3.042372 30.277645 9.938341
2003-03-20 09:27:58 51°21.972 3°5.869 6.030453 3.042372 30.277645 9.938341
2003-03-20 09:28:02 51°21.977 3°5.89 6.025563 3.048899 30.350967 9.870922
2003-03-20 09:28:07 51°21.982 3°5.916 6.029156 3.040793 30.263339 9.803503
2003-03-20 09:28:13 51°21.989 3°5.948 6.030004 3.048267 30.345552 9.533828
2003-03-20 09:28:18 51°21.995 3°5.975 6.027559 3.042899 30.28726 9.668665
2003-03-20 09:28:23 51°22 3°6.001 6.027559 3.042899 30.28726 9.668665
2003-03-20 09:28:27 51°22.005 3°6.022 6.029256 3.041635 30.274897 9.601247
2003-03-20 09:28:33 51°22.012 3°6.054 6.028906 3.04553 30.319274 9.601247
2003-03-20 09:28:38 51°22.018 3°6.08 6.030952 3.048583 30.355164 9.466409
2003-03-20 09:28:43 51°22.023 3°6.107 6.0316 3.050478 30.376784 9.567537
2003-03-20 09:28:48 51°22.029 3°6.133 6.028108 3.044899 30.31539 9.365281
2003-03-20 09:28:53 51°22.035 3°6.159 6.027659 3.051741 30.391455 9.4327
2003-03-20 09:28:57 51°22.039 3°6.181 6.027659 3.051741 30.391455 9.4327
2003-03-20 09:29:03 51°22.046 3°6.212 6.026262 3.049952 30.370223 9.500118
2003-03-20 09:29:07 51°22.051 3°6.233 6.023268 3.045004 30.315016 9.466409
2003-03-20 09:29:13 51°22.057 3°6.265 6.02257 3.044899 30.313857 9.163024
2003-03-20 09:29:18 51°22.063 3°6.292 6.023767 3.055215 30.428924 9.196734
2003-03-20 09:29:23 51°22.069 3°6.318 6.020175 3.047004 30.340856 9.297862
2003-03-20 09:29:28 51°22.075 3°6.344 6.020175 3.047004 30.340856 9.297862
2003-03-20 09:29:32 51°22.079 3°6.366 6.025763 3.044688 30.316139 9.4327
2003-03-20 09:29:37 51°22.085 3°6.392 6.024765 3.045109 30.321539 9.500118
2003-03-20 09:29:43 51°22.092 3°6.424 6.026013 3.045636 30.328864 9.567537
2003-03-20 09:29:48 51°22.097 3°6.45 6.026362 3.04532 30.325389 9.736084
2003-03-20 09:29:53 51°22.103 3°6.477 6.022021 3.057005 30.454783 9.702375
2003-03-20 09:29:58 51°22.109 3°6.503 6.022021 3.057005 30.454783 9.702375
2003-03-20 09:30:03 51°22.114 3°6.529 6.024566 3.045846 30.331948 9.702375
2003-03-20 09:30:07 51°22.119 3°6.55 6.025015 3.049846 30.375208 9.736084
2003-03-20 09:30:13 51°22.126 3°6.582 6.025514 3.051636 30.394138 9.668665
2003-03-20 09:30:18 51°22.132 3°6.608 6.024765 3.052478 30.40264 9.533828
2003-03-20 09:30:23 51°22.138 3°6.634 6.025015 3.056478 30.446678 9.533828
2003-03-20 09:30:27 51°22.142 3°6.655 6.025015 3.056478 30.446678 9.533828
2003-03-20 09:30:33 51°22.149 3°6.687 6.030553 3.047741 30.348965 9.39899
2003-03-20 09:30:38 51°22.155 3°6.713 6.025563 3.048478 30.357075 9.4327
2003-03-20 09:30:43 51°22.16 3°6.74 6.028956 3.059321 30.476433 9.331571
2003-03-20 09:30:47 51°22.165 3°6.761 6.031501 3.058584 30.466779 9.230443
2003-03-20 09:30:52 51°22.171 3°6.787 6.03614 3.060794 30.49112 9.365281
2003-03-20 09:30:57 51°22.177 3°6.813 6.03614 3.060794 30.49112 9.365281
2003-03-20 09:31:03 51°22.184 3°6.845 6.040031 3.058899 30.469486 9.061896
2003-03-20 09:31:07 51°22.188 3°6.866 6.041228 3.054689 30.425437 9.028187
2003-03-20 09:31:13 51°22.195 3°6.898 6.046765 3.061005 30.492667 8.927059
2003-03-20 09:31:18 51°22.201 3°6.924 6.044471 3.059847 30.480688 8.85964
2003-03-20 09:31:23 51°22.207 3°6.95 6.049408 3.060268 30.483783 8.792221
2003-03-20 09:31:27 51°22.212 3°6.971 6.049408 3.060268 30.483783 8.792221
2003-03-20 09:31:33 51°22.219 3°7.002 6.0527 3.056162 30.434737 8.657383
2003-03-20 09:31:37 51°22.223 3°7.023 6.054346 3.055531 30.425478 8.455127
2003-03-20 09:31:43 51°22.23 3°7.054 6.054994 3.051846 30.384165 8.488836
2003-03-20 09:31:47 51°22.235 3°7.075 6.055393 3.051215 30.373377 8.387708
2003-03-20 09:31:51 51°22.239 3°7.097 6.053648 3.055636 30.421255 8.387708
2003-03-20 09:31:57 51°22.246 3°7.128 6.053648 3.055636 30.421255 8.387708
2003-03-20 09:32:03 51°22.253 3°7.159 6.06023 3.056689 30.430532 8.219161
2003-03-20 09:32:08 51°22.259 3°7.185 6.058784 3.056162 30.422435 8.151742
2003-03-20 09:32:13 51°22.265 3°7.212 6.064918 3.052267 30.37805 8.118033
2003-03-20 09:32:17 51°22.269 3°7.233 6.067959 3.056689 30.425151 7.983195
2003-03-20 09:32:23 51°22.276 3°7.264 6.077532 3.056478 30.423604 7.949486
2003-03-20 09:32:27 51°22.281 3°7.285 6.077532 3.056478 30.423604 7.949486
2003-03-20 09:32:33 51°22.288 3°7.316 6.080972 3.056373 30.420909 7.882067
2003-03-20 09:32:38 51°22.293 3°7.342 6.0881 3.056057 30.41513 7.74723
2003-03-20 09:32:43 51°22.299 3°7.369 6.09438 3.055741 30.41012 7.74723
2003-03-20 09:32:47 51°22.303 3°7.39 6.099264 3.055531 30.4055 7.612392
2003-03-20 09:32:51 51°22.308 3°7.412 6.107636 3.055425 30.399736 7.612392
2003-03-20 09:32:58 51°22.316 3°7.449 6.107636 3.055425 30.399736 7.612392
2003-03-20 09:33:02 51°22.32 3°7.471 6.111523 3.055109 30.391659 7.612392
2003-03-20 09:33:07 51°22.327 3°7.497 6.10933 3.055215 30.387446 7.544973
2003-03-20 09:33:13 51°22.334 3°7.529 6.101357 3.054899 30.379374 7.342717
2003-03-20 09:33:18 51°22.339 3°7.555 6.091788 3.054899 30.374008 7.342717
2003-03-20 09:33:23 51°22.344 3°7.581 6.080623 3.055004 30.369801 7.275298
2003-03-20 09:33:28 51°22.35 3°7.608 6.080623 3.055004 30.369801 7.275298
2003-03-20 09:33:33 51°22.355 3°7.634 6.069006 3.054688 30.361735 7.039332
2003-03-20 09:33:38 51°22.361 3°7.661 6.0712 3.054267 30.354047 7.039332
2003-03-20 09:33:42 51°22.365 3°7.682 6.066912 3.053635 30.34711 7.106751
2003-03-20 09:33:47 51°22.37 3°7.708 6.061677 3.053214 30.346311 7.309007
2003-03-20 09:33:53 51°22.377 3°7.74 6.059732 3.052477 30.34434 7.443845
2003-03-20 09:33:58 51°22.382 3°7.766 6.059732 3.052477 30.34434 7.443845
2003-03-20 09:34:03 51°22.388 3°7.793 6.046665 3.051951 30.345448 7.376426
2003-03-20 09:34:08 51°22.393 3°7.819 6.047314 3.050688 30.337691 7.511264
2003-03-20 09:34:11 51°22.397 3°7.835 6.037188 3.049951 30.335719 7.342717
2003-03-20 09:34:18 51°22.404 3°7.872 6.033346 3.049109 30.329524 7.477554
2003-03-20 09:34:22 51°22.409 3°7.893 6.02731 3.048478 30.327941 7.578683
2003-03-20 09:34:27 51°22.415 3°7.919 6.02731 3.048478 30.327941 7.578683
2003-03-20 09:34:33 51°22.422 3°7.951 6.029705 3.047635 30.321746 7.612392
2003-03-20 09:34:38 51°22.427 3°7.977 6.025414 3.04732 30.322868 7.612392
2003-03-20 09:34:43 51°22.432 3°8.004 6.029405 3.046793 30.321676 7.74723
2003-03-20 09:34:47 51°22.437 3°8.025 6.024366 3.046372 30.321642 7.780939
2003-03-20 09:34:53 51°22.444 3°8.057 6.029854 3.046267 30.323549 7.679811
2003-03-20 09:34:57 51°22.449 3°8.078 6.029854 3.046267 30.323549 7.679811
2003-03-20 09:35:03 51°22.456 3°8.109 6.029006 3.04553 30.320806 7.74723
2003-03-20 09:35:07 51°22.46 3°8.13 6.030403 3.045215 30.318865 7.814648
2003-03-20 09:35:13 51°22.467 3°8.161 6.031401 3.044794 30.315764 7.679811
2003-03-20 09:35:18 51°22.473 3°8.187 6.036789 3.044162 30.309581 7.578683
2003-03-20 09:35:23 51°22.479 3°8.213 6.036789 3.044162 30.309581 7.578683
2003-03-20 09:35:27 51°22.483 3°8.234 6.04033 3.042899 30.294917 7.511264
2003-03-20 09:35:33 51°22.49 3°8.265 6.038884 3.041951 30.284493 7.511264
2003-03-20 09:35:38 51°22.495 3°8.291 6.039233 3.040267 30.264434 7.511264
2003-03-20 09:35:43 51°22.501 3°8.317 6.043872 3.038899 30.249382 7.544973
2003-03-20 09:35:48 51°22.506 3°8.343 6.041577 3.037951 30.237432 7.443845
2003-03-20 09:35:52 51°22.511 3°8.364 6.041577 3.037951 30.237432 7.443845
2003-03-20 09:35:58 51°22.517 3°8.395 6.037687 3.037004 30.223957 7.443845
2003-03-20 09:36:03 51°22.523 3°8.421 6.041927 3.035846 30.210461 7.443845
2003-03-20 09:36:07 51°22.527 3°8.441 6.04482 3.034793 30.19736 7.410136
2003-03-20 09:36:13 51°22.534 3°8.472 6.04886 3.034162 30.18889 7.544973
2003-03-20 09:36:18 51°22.539 3°8.498 6.059482 3.03332 30.179632 7.477554
2003-03-20 09:36:23 51°22.545 3°8.523 6.054695 3.032162 30.166903 7.477554
2003-03-20 09:36:27 51°22.549 3°8.544 6.054695 3.032162 30.166903 7.477554
2003-03-20 09:36:33 51°22.556 3°8.574 6.054446 3.031425 30.158803 7.443845
2003-03-20 09:36:37 51°22.561 3°8.594 6.053947 3.030583 30.148784 7.578683
2003-03-20 09:36:43 51°22.567 3°8.625 6.055044 3.029635 30.136087 7.544973
2003-03-20 09:36:47 51°22.572 3°8.645 6.056191 3.028583 30.121474 7.646101
2003-03-20 09:36:53 51°22.578 3°8.676 6.061627 3.028372 30.116878 7.612392
2003-03-20 09:36:57 51°22.583 3°8.697 6.061627 3.028372 30.116878 7.612392
2003-03-20 09:37:03 51°22.59 3°8.727 6.061477 3.027319 30.103791 7.646101
2003-03-20 09:37:07 51°22.594 3°8.748 6.065267 3.026372 30.093383 7.646101
2003-03-20 09:37:13 51°22.6 3°8.778 6.07474 3.025846 30.086081 7.646101
2003-03-20 09:37:18 51°22.603 3°8.803 6.077133 3.025214 30.079143 7.679811
2003-03-20 09:37:23 51°22.606 3°8.828 6.080872 3.024583 30.070686 7.679811
2003-03-20 09:37:27 51°22.607 3°8.847 6.080872 3.024583 30.070686 7.679811
2003-03-20 09:37:33 51°22.609 3°8.874 6.088997 3.024267 30.06418 7.578683
2003-03-20 09:37:37 51°22.611 3°8.892 6.084112 3.023319 30.051499 7.578683
2003-03-20 09:37:43 51°22.614 3°8.919 6.077831 3.023214 30.045791 7.612392
2003-03-20 09:37:47 51°22.616 3°8.936 6.080074 3.022793 30.038134 7.578683
2003-03-20 09:37:53 51°22.619 3°8.961 6.080074 3.022793 30.038134 7.578683
2003-03-20 09:37:58 51°22.622 3°8.982 6.086106 3.022372 30.029721 7.612392
2003-03-20 09:38:03 51°22.624 3°9.003 6.08486 3.022056 30.021708 7.578683
2003-03-20 09:38:07 51°22.626 3°9.02 6.086654 3.021845 30.017125 8.522546
2003-03-20 09:38:13 51°22.627 3°9.046 6.082417 3.020582 30.000236 9.365281
2003-03-20 09:38:17 51°22.628 3°9.063 6.079875 3.019003 29.981399 8.320289
2003-03-20 09:38:23 51°22.629 3°9.087 6.079875 3.019003 29.981399 8.320289
2003-03-20 09:38:27 51°22.629 3°9.102 6.079177 3.016898 29.956792 7.949486
2003-03-20 09:38:33 51°22.63 3°9.124 6.077133 3.016477 29.951418 7.949486
2003-03-20 09:38:38 51°22.632 3°9.141 6.073344 3.015214 29.936053 7.949486
2003-03-20 09:38:43 51°22.633 3°9.158 6.077482 3.015109 29.933388 8.016905
2003-03-20 09:38:47 51°22.635 3°9.171 6.082617 3.014688 29.930281 7.915777
2003-03-20 09:38:53 51°22.637 3°9.189 6.095078 3.014582 29.931392 7.915777
2003-03-20 09:38:58 51°22.639 3°9.203 6.095078 3.014582 29.931392 7.915777
2003-03-20 09:39:03 51°22.642 3°9.217 6.101507 3.014372 29.929838 7.949486
2003-03-20 09:39:07 51°22.644 3°9.227 6.101507 3.014056 29.929395 7.949486
2003-03-20 09:39:13 51°22.647 3°9.241 6.102055 3.01374 29.926686 7.949486
2003-03-20 09:39:17 51°22.65 3°9.251 6.100809 3.012688 29.91514 8.050614
2003-03-20 09:39:23 51°22.653 3°9.264 6.099663 3.01174 29.900223 7.915777
2003-03-20 09:39:26 51°22.654 3°9.271 6.099663 3.01174 29.900223 7.915777
2003-03-20 09:39:33 51°22.657 3°9.285 6.09752 3.010688 29.881895 7.814648
2003-03-20 09:39:37 51°22.659 3°9.293 6.094779 3.009319 29.862374 7.949486